PWSweather.com
Personal Weather Stations
Station Observations
EI4HQ
Cork Harbour, CobhIE

Cork HarbourCobhIE

Lat: 51.85, Lon: -8.29

Elevation: 252

Station Type: Davis Vantage Pro2

http://www.corkharbourweather.ie

High Low Average
Temperature 50.4°F10.2°C 32.4°F0.2°C 43.6°F6.4°C
Dew Point 47.3°F8.5°C 27.1°F-2.7°C 39.7°F4.3°C
Winds 35.0 mph 56.3 kmh 1.0 mph 1.6 kmh 19.0 mph SSE30.6 kmh SSE
Wind Gusts 55.0 mph88.5 kmh 2.0 mph3.2 kmh 30.0 mph48.3 kmh
Humidity 96% 78% 86%
Pressure 29.87 in1011.5 mb 29.56 in1001.0 mb -
Precipitation 0.15 in3.8 mm - -
Hour Temp Dew Point Humidity Winds Wind Gusts Pressure Precip Precip Rate Daily Precip Total
12:00 AM 35.2°F1.8°C 28.9°F-1.7°C 78% 7.0 mph NNW11.3 kmh NNW 10.0 mph16.1 kmh 29.82 in1009.8 mb 0.00 in0.0 mm 0.00 in0.0 mm 0.00 in0.0 mm
12:03 AM 35.1°F1.7°C 28.8°F-1.8°C 78% 6.0 mph NNW9.7 kmh NNW 9.0 mph14.5 kmh 29.82 in1009.8 mb 0.00 in0.0 mm 0.00 in0.0 mm 0.00 in0.0 mm
12:06 AM 34.9°F1.6°C 28.8°F-1.8°C 78% 6.0 mph NNW9.7 kmh NNW 9.0 mph14.5 kmh 29.82 in1009.8 mb 0.00 in0.0 mm 0.00 in0.0 mm 0.00 in0.0 mm
12:09 AM 34.7°F1.5°C 28.6°F-1.9°C 78% 6.0 mph NNW9.7 kmh NNW 11.0 mph17.7 kmh 29.82 in1009.8 mb 0.00 in0.0 mm 0.00 in0.0 mm 0.00 in0.0 mm
12:12 AM 34.7°F1.5°C 28.9°F-1.7°C 79% 8.0 mph NNW12.9 kmh NNW 11.0 mph17.7 kmh 29.82 in1009.8 mb 0.00 in0.0 mm 0.00 in0.0 mm 0.00 in0.0 mm
12:15 AM 34.5°F1.4°C 28.8°F-1.8°C 79% 8.0 mph NNW12.9 kmh NNW 11.0 mph17.7 kmh 29.83 in1010.2 mb 0.00 in0.0 mm 0.00 in0.0 mm 0.00 in0.0 mm
12:18 AM 34.5°F1.4°C 28.8°F-1.8°C 79% 8.0 mph NNW12.9 kmh NNW 11.0 mph17.7 kmh 29.83 in1010.2 mb 0.00 in0.0 mm 0.00 in0.0 mm 0.00 in0.0 mm
12:21 AM 34.5°F1.4°C 28.8°F-1.8°C 79% 7.0 mph NNW11.3 kmh NNW 10.0 mph16.1 kmh 29.83 in1010.2 mb 0.00 in0.0 mm 0.00 in0.0 mm 0.00 in0.0 mm
12:24 AM 34.5°F1.4°C 29.1°F-1.6°C 80% 7.0 mph NNW11.3 kmh NNW 8.0 mph12.9 kmh 29.83 in1010.2 mb 0.00 in0.0 mm 0.00 in0.0 mm 0.00 in0.0 mm
12:27 AM 34.5°F1.4°C 28.8°F-1.8°C 79% 6.0 mph NNW9.7 kmh NNW 8.0 mph12.9 kmh 29.83 in1010.2 mb 0.00 in0.0 mm 0.00 in0.0 mm 0.00 in0.0 mm
12:30 AM 34.5°F1.4°C 28.6°F-1.9°C 79% 5.0 mph NNW8.0 kmh NNW 8.0 mph12.9 kmh 29.84 in1010.5 mb 0.00 in0.0 mm 0.00 in0.0 mm 0.00 in0.0 mm
12:33 AM 34.3°F1.3°C 28.4°F-2.0°C 79% 3.0 mph NNW4.8 kmh NNW 8.0 mph12.9 kmh 29.84 in1010.5 mb 0.00 in0.0 mm 0.00 in0.0 mm 0.00 in0.0 mm
12:36 AM 34.2°F1.2°C 28.2°F-2.1°C 79% 2.0 mph NNW3.2 kmh NNW 6.0 mph9.7 kmh 29.84 in1010.5 mb 0.00 in0.0 mm 0.00 in0.0 mm 0.00 in0.0 mm
12:39 AM 34.0°F1.1°C 28.0°F-2.2°C 79% 1.0 mph NW1.6 kmh NW 3.0 mph4.8 kmh 29.84 in1010.5 mb 0.00 in0.0 mm 0.00 in0.0 mm 0.00 in0.0 mm
12:42 AM 33.6°F0.9°C 28.2°F-2.1°C 80% 1.0 mph NW1.6 kmh NW 3.0 mph4.8 kmh 29.84 in1010.5 mb 0.00 in0.0 mm 0.00 in0.0 mm 0.00 in0.0 mm
12:45 AM 33.6°F0.9°C 28.0°F-2.2°C 80% 1.0 mph NW1.6 kmh NW 3.0 mph4.8 kmh 29.84 in1010.5 mb 0.00 in0.0 mm 0.00 in0.0 mm 0.00 in0.0 mm
12:48 AM 33.6°F0.9°C 28.4°F-2.0°C 81% 1.0 mph NW1.6 kmh NW 3.0 mph4.8 kmh 29.84 in1010.5 mb 0.00 in0.0 mm 0.00 in0.0 mm 0.00 in0.0 mm
12:51 AM 33.8°F1.0°C 28.6°F-1.9°C 81% 2.0 mph NNW3.2 kmh NNW 6.0 mph9.7 kmh 29.84 in1010.5 mb 0.00 in0.0 mm 0.00 in0.0 mm 0.00 in0.0 mm
12:54 AM 34.2°F1.2°C 28.9°F-1.7°C 81% 4.0 mph NNW6.4 kmh NNW 8.0 mph12.9 kmh 29.84 in1010.5 mb 0.00 in0.0 mm 0.00 in0.0 mm 0.00 in0.0 mm
12:57 AM 34.3°F1.3°C 28.9°F-1.7°C 80% 6.0 mph NNW9.7 kmh NNW 9.0 mph14.5 kmh 29.84 in1010.5 mb 0.00 in0.0 mm 0.00 in0.0 mm 0.00 in0.0 mm
01:00 AM 34.5°F1.4°C 28.9°F-1.7°C 80% 7.0 mph NNW11.3 kmh NNW 10.0 mph16.1 kmh 29.84 in1010.5 mb 0.00 in0.0 mm 0.00 in0.0 mm 0.00 in0.0 mm
01:03 AM 34.7°F1.5°C 29.1°F-1.6°C 80% 8.0 mph NNW12.9 kmh NNW 10.0 mph16.1 kmh 29.84 in1010.5 mb 0.00 in0.0 mm 0.00 in0.0 mm 0.00 in0.0 mm
01:06 AM 34.9°F1.6°C 29.1°F-1.6°C 79% 7.0 mph NNW11.3 kmh NNW 10.0 mph16.1 kmh 29.84 in1010.5 mb 0.00 in0.0 mm 0.00 in0.0 mm 0.00 in0.0 mm
01:09 AM 35.1°F1.7°C 29.1°F-1.6°C 79% 7.0 mph NNW11.3 kmh NNW 10.0 mph16.1 kmh 29.84 in1010.5 mb 0.00 in0.0 mm 0.00 in0.0 mm 0.00 in0.0 mm
01:12 AM 35.2°F1.8°C 29.3°F-1.5°C 79% 6.0 mph NNW9.7 kmh NNW 9.0 mph14.5 kmh 29.84 in1010.5 mb 0.00 in0.0 mm 0.00 in0.0 mm 0.00 in0.0 mm
01:15 AM 35.2°F1.8°C 28.9°F-1.7°C 78% 5.0 mph N8.0 kmh N 6.0 mph9.7 kmh 29.84 in1010.5 mb 0.00 in0.0 mm 0.00 in0.0 mm 0.00 in0.0 mm
01:18 AM 35.1°F1.7°C 28.9°F-1.7°C 78% 4.0 mph N6.4 kmh N 6.0 mph9.7 kmh 29.85 in1010.8 mb 0.00 in0.0 mm 0.00 in0.0 mm 0.00 in0.0 mm
01:21 AM 34.9°F1.6°C 28.8°F-1.8°C 78% 3.0 mph N4.8 kmh N 6.0 mph9.7 kmh 29.85 in1010.8 mb 0.00 in0.0 mm 0.00 in0.0 mm 0.00 in0.0 mm
01:24 AM 34.5°F1.4°C 28.4°F-2.0°C 78% 2.0 mph N3.2 kmh N 4.0 mph6.4 kmh 29.85 in1010.8 mb 0.00 in0.0 mm 0.00 in0.0 mm 0.00 in0.0 mm
01:27 AM 34.2°F1.2°C 28.8°F-1.8°C 80% 1.0 mph N1.6 kmh N 3.0 mph4.8 kmh 29.85 in1010.8 mb 0.00 in0.0 mm 0.00 in0.0 mm 0.00 in0.0 mm
01:30 AM 34.2°F1.2°C 28.6°F-1.9°C 80% 1.0 mph N1.6 kmh N 2.0 mph3.2 kmh 29.85 in1010.8 mb 0.00 in0.0 mm 0.00 in0.0 mm 0.00 in0.0 mm
01:33 AM 34.0°F1.1°C 28.8°F-1.8°C 81% 1.0 mph N1.6 kmh N 2.0 mph3.2 kmh 29.86 in1011.2 mb 0.00 in0.0 mm 0.00 in0.0 mm 0.00 in0.0 mm
01:36 AM 34.0°F1.1°C 28.8°F-1.8°C 81% 1.0 mph N1.6 kmh N 3.0 mph4.8 kmh 29.86 in1011.2 mb 0.00 in0.0 mm 0.00 in0.0 mm 0.00 in0.0 mm
01:39 AM 34.0°F1.1°C 28.8°F-1.8°C 81% 2.0 mph N3.2 kmh N 4.0 mph6.4 kmh 29.86 in1011.2 mb 0.00 in0.0 mm 0.00 in0.0 mm 0.00 in0.0 mm
01:42 AM 34.0°F1.1°C 28.8°F-1.8°C 81% 2.0 mph N3.2 kmh N 4.0 mph6.4 kmh 29.86 in1011.2 mb 0.00 in0.0 mm 0.00 in0.0 mm 0.00 in0.0 mm
01:45 AM 34.0°F1.1°C 28.8°F-1.8°C 81% 3.0 mph N4.8 kmh N 4.0 mph6.4 kmh 29.85 in1010.8 mb 0.00 in0.0 mm 0.00 in0.0 mm 0.00 in0.0 mm
01:48 AM 33.8°F1.0°C 28.6°F-1.9°C 81% 3.0 mph N4.8 kmh N 4.0 mph6.4 kmh 29.85 in1010.8 mb 0.00 in0.0 mm 0.00 in0.0 mm 0.00 in0.0 mm
01:51 AM 33.6°F0.9°C 28.4°F-2.0°C 81% 3.0 mph N4.8 kmh N 4.0 mph6.4 kmh 29.86 in1011.2 mb 0.00 in0.0 mm 0.00 in0.0 mm 0.00 in0.0 mm
01:54 AM 33.4°F0.8°C 28.2°F-2.1°C 81% 2.0 mph N3.2 kmh N 4.0 mph6.4 kmh 29.86 in1011.2 mb 0.00 in0.0 mm 0.00 in0.0 mm 0.00 in0.0 mm
01:57 AM 33.4°F0.8°C 28.6°F-1.9°C 82% 2.0 mph N3.2 kmh N 3.0 mph4.8 kmh 29.86 in1011.2 mb 0.00 in0.0 mm 0.00 in0.0 mm 0.00 in0.0 mm
02:00 AM 33.3°F0.7°C 28.4°F-2.0°C 82% 1.0 mph N1.6 kmh N 3.0 mph4.8 kmh 29.86 in1011.2 mb 0.00 in0.0 mm 0.00 in0.0 mm 0.00 in0.0 mm
02:03 AM 33.4°F0.8°C 28.9°F-1.7°C 83% 1.0 mph N1.6 kmh N 3.0 mph4.8 kmh 29.85 in1010.8 mb 0.00 in0.0 mm 0.00 in0.0 mm 0.00 in0.0 mm
02:06 AM 33.6°F0.9°C 29.1°F-1.6°C 83% 1.0 mph N1.6 kmh N 3.0 mph4.8 kmh 29.86 in1011.2 mb 0.00 in0.0 mm 0.00 in0.0 mm 0.00 in0.0 mm
02:09 AM 34.0°F1.1°C 29.3°F-1.5°C 83% 2.0 mph N3.2 kmh N 3.0 mph4.8 kmh 29.86 in1011.2 mb 0.00 in0.0 mm 0.00 in0.0 mm 0.00 in0.0 mm
02:12 AM 34.2°F1.2°C 29.5°F-1.4°C 83% 2.0 mph N3.2 kmh N 3.0 mph4.8 kmh 29.86 in1011.2 mb 0.00 in0.0 mm 0.00 in0.0 mm 0.00 in0.0 mm
02:15 AM 34.3°F1.3°C 29.3°F-1.5°C 82% 2.0 mph N3.2 kmh N 3.0 mph4.8 kmh 29.86 in1011.2 mb 0.00 in0.0 mm 0.00 in0.0 mm 0.00 in0.0 mm
02:18 AM 34.3°F1.3°C 29.1°F-1.6°C 81% 3.0 mph N4.8 kmh N 4.0 mph6.4 kmh 29.85 in1010.8 mb 0.00 in0.0 mm 0.00 in0.0 mm 0.00 in0.0 mm
02:21 AM 34.2°F1.2°C 28.9°F-1.7°C 81% 3.0 mph N4.8 kmh N 4.0 mph6.4 kmh 29.85 in1010.8 mb 0.00 in0.0 mm 0.00 in0.0 mm 0.00 in0.0 mm
02:24 AM 34.2°F1.2°C 28.9°F-1.7°C 81% 3.0 mph NNE4.8 kmh NNE 4.0 mph6.4 kmh 29.85 in1010.8 mb 0.00 in0.0 mm 0.00 in0.0 mm 0.00 in0.0 mm
02:27 AM 34.2°F1.2°C 28.9°F-1.7°C 81% 3.0 mph NE4.8 kmh NE 4.0 mph6.4 kmh 29.85 in1010.8 mb 0.00 in0.0 mm 0.00 in0.0 mm 0.00 in0.0 mm
02:30 AM 34.2°F1.2°C 28.9°F-1.7°C 81% 2.0 mph NE3.2 kmh NE 4.0 mph6.4 kmh 29.85 in1010.8 mb 0.00 in0.0 mm 0.00 in0.0 mm 0.00 in0.0 mm
02:33 AM 34.3°F1.3°C 29.1°F-1.6°C 81% 2.0 mph NE3.2 kmh NE 3.0 mph4.8 kmh 29.85 in1010.8 mb 0.00 in0.0 mm 0.00 in0.0 mm 0.00 in0.0 mm
02:36 AM 34.3°F1.3°C 28.8°F-1.8°C 80% 2.0 mph NE3.2 kmh NE 3.0 mph4.8 kmh 29.85 in1010.8 mb 0.00 in0.0 mm 0.00 in0.0 mm 0.00 in0.0 mm
02:39 AM 34.2°F1.2°C 28.8°F-1.8°C 80% 2.0 mph NE3.2 kmh NE 4.0 mph6.4 kmh 29.85 in1010.8 mb 0.00 in0.0 mm 0.00 in0.0 mm 0.00 in0.0 mm
02:42 AM 34.0°F1.1°C 28.4°F-2.0°C 80% 2.0 mph NE3.2 kmh NE 4.0 mph6.4 kmh 29.85 in1010.8 mb 0.00 in0.0 mm 0.00 in0.0 mm 0.00 in0.0 mm
02:45 AM 34.0°F1.1°C 28.4°F-2.0°C 80% 2.0 mph ENE3.2 kmh ENE 4.0 mph6.4 kmh 29.85 in1010.8 mb 0.00 in0.0 mm 0.00 in0.0 mm 0.00 in0.0 mm
02:48 AM 34.0°F1.1°C 28.4°F-2.0°C 80% 2.0 mph E3.2 kmh E 4.0 mph6.4 kmh 29.85 in1010.8 mb 0.00 in0.0 mm 0.00 in0.0 mm 0.00 in0.0 mm
02:51 AM 34.2°F1.2°C 28.6°F-1.9°C 80% 2.0 mph E3.2 kmh E 4.0 mph6.4 kmh 29.85 in1010.8 mb 0.00 in0.0 mm 0.00 in0.0 mm 0.00 in0.0 mm
02:54 AM 34.2°F1.2°C 28.6°F-1.9°C 80% 2.0 mph E3.2 kmh E 4.0 mph6.4 kmh 29.85 in1010.8 mb 0.00 in0.0 mm 0.00 in0.0 mm 0.00 in0.0 mm
02:57 AM 34.2°F1.2°C 28.8°F-1.8°C 80% 2.0 mph ENE3.2 kmh ENE 4.0 mph6.4 kmh 29.85 in1010.8 mb 0.00 in0.0 mm 0.00 in0.0 mm 0.00 in0.0 mm
03:00 AM 34.2°F1.2°C 28.8°F-1.8°C 80% 2.0 mph ENE3.2 kmh ENE 3.0 mph4.8 kmh 29.85 in1010.8 mb 0.00 in0.0 mm 0.00 in0.0 mm 0.00 in0.0 mm
03:03 AM 34.3°F1.3°C 28.8°F-1.8°C 80% 2.0 mph ENE3.2 kmh ENE 4.0 mph6.4 kmh 29.85 in1010.8 mb 0.00 in0.0 mm 0.00 in0.0 mm 0.00 in0.0 mm
03:06 AM 34.3°F1.3°C 28.4°F-2.0°C 79% 2.0 mph ENE3.2 kmh ENE 4.0 mph6.4 kmh 29.86 in1011.2 mb 0.00 in0.0 mm 0.00 in0.0 mm 0.00 in0.0 mm
03:09 AM 34.2°F1.2°C 28.0°F-2.2°C 78% 2.0 mph E3.2 kmh E 4.0 mph6.4 kmh 29.86 in1011.2 mb 0.00 in0.0 mm 0.00 in0.0 mm 0.00 in0.0 mm
03:12 AM 33.8°F1.0°C 27.7°F-2.4°C 78% 1.0 mph E1.6 kmh E 3.0 mph4.8 kmh 29.86 in1011.2 mb 0.00 in0.0 mm 0.00 in0.0 mm 0.00 in0.0 mm
03:15 AM 33.4°F0.8°C 27.7°F-2.4°C 79% 1.0 mph E1.6 kmh E 3.0 mph4.8 kmh 29.86 in1011.2 mb 0.00 in0.0 mm 0.00 in0.0 mm 0.00 in0.0 mm
03:18 AM 33.3°F0.7°C 27.9°F-2.3°C 80% 1.0 mph E1.6 kmh E 2.0 mph3.2 kmh 29.86 in1011.2 mb 0.00 in0.0 mm 0.00 in0.0 mm 0.00 in0.0 mm
03:21 AM 32.9°F0.5°C 27.1°F-2.7°C 79% 1.0 mph E1.6 kmh E 2.0 mph3.2 kmh 29.86 in1011.2 mb 0.00 in0.0 mm 0.00 in0.0 mm 0.00 in0.0 mm
03:24 AM 32.7°F0.4°C 27.3°F-2.6°C 80% 1.0 mph E1.6 kmh E 2.0 mph3.2 kmh 29.86 in1011.2 mb 0.00 in0.0 mm 0.00 in0.0 mm 0.00 in0.0 mm
03:27 AM 32.9°F0.5°C 27.7°F-2.4°C 81% 1.0 mph E1.6 kmh E 2.0 mph3.2 kmh 29.86 in1011.2 mb 0.00 in0.0 mm 0.00 in0.0 mm 0.00 in0.0 mm
03:30 AM 33.1°F0.6°C 28.2°F-2.1°C 82% 2.0 mph E3.2 kmh E 2.0 mph3.2 kmh 29.86 in1011.2 mb 0.00 in0.0 mm 0.00 in0.0 mm 0.00 in0.0 mm
03:33 AM 33.3°F0.7°C 28.0°F-2.2°C 81% 2.0 mph E3.2 kmh E 4.0 mph6.4 kmh 29.86 in1011.2 mb 0.00 in0.0 mm 0.00 in0.0 mm 0.00 in0.0 mm
03:36 AM 33.1°F0.6°C 27.7°F-2.4°C 80% 2.0 mph E3.2 kmh E 4.0 mph6.4 kmh 29.86 in1011.2 mb 0.00 in0.0 mm 0.00 in0.0 mm 0.00 in0.0 mm
03:39 AM 32.9°F0.5°C 27.3°F-2.6°C 80% 2.0 mph E3.2 kmh E 4.0 mph6.4 kmh 29.86 in1011.2 mb 0.00 in0.0 mm 0.00 in0.0 mm 0.00 in0.0 mm
03:42 AM 32.7°F0.4°C 27.3°F-2.6°C 80% 3.0 mph E4.8 kmh E 4.0 mph6.4 kmh 29.86 in1011.2 mb 0.00 in0.0 mm 0.00 in0.0 mm 0.00 in0.0 mm
03:45 AM 32.5°F0.3°C 27.1°F-2.7°C 80% 3.0 mph E4.8 kmh E 4.0 mph6.4 kmh 29.87 in1011.5 mb 0.00 in0.0 mm 0.00 in0.0 mm 0.00 in0.0 mm
03:48 AM 32.5°F0.3°C 27.3°F-2.6°C 81% 3.0 mph E4.8 kmh E 4.0 mph6.4 kmh 29.86 in1011.2 mb 0.00 in0.0 mm 0.00 in0.0 mm 0.00 in0.0 mm
03:51 AM 32.4°F0.2°C 27.1°F-2.7°C 81% 2.0 mph E3.2 kmh E 4.0 mph6.4 kmh 29.86 in1011.2 mb 0.00 in0.0 mm 0.00 in0.0 mm 0.00 in0.0 mm
03:54 AM 32.5°F0.3°C 27.7°F-2.4°C 82% 3.0 mph E4.8 kmh E 8.0 mph12.9 kmh 29.86 in1011.2 mb 0.00 in0.0 mm 0.00 in0.0 mm 0.00 in0.0 mm
03:57 AM 32.5°F0.3°C 27.7°F-2.4°C 82% 3.0 mph E4.8 kmh E 8.0 mph12.9 kmh 29.86 in1011.2 mb 0.00 in0.0 mm 0.00 in0.0 mm 0.00 in0.0 mm
04:00 AM 32.7°F0.4°C 28.0°F-2.2°C 83% 3.0 mph E4.8 kmh E 8.0 mph12.9 kmh 29.86 in1011.2 mb 0.00 in0.0 mm 0.00 in0.0 mm 0.00 in0.0 mm
04:03 AM 33.1°F0.6°C 28.4°F-2.0°C 83% 3.0 mph E4.8 kmh E 8.0 mph12.9 kmh 29.86 in1011.2 mb 0.00 in0.0 mm 0.00 in0.0 mm 0.00 in0.0 mm
04:06 AM 33.3°F0.7°C 28.6°F-1.9°C 83% 3.0 mph E4.8 kmh E 6.0 mph9.7 kmh 29.86 in1011.2 mb 0.00 in0.0 mm 0.00 in0.0 mm 0.00 in0.0 mm
04:09 AM 33.4°F0.8°C 28.8°F-1.8°C 83% 3.0 mph E4.8 kmh E 6.0 mph9.7 kmh 29.86 in1011.2 mb 0.00 in0.0 mm 0.00 in0.0 mm 0.00 in0.0 mm
04:12 AM 33.6°F0.9°C 28.9°F-1.7°C 83% 3.0 mph ENE4.8 kmh ENE 6.0 mph9.7 kmh 29.86 in1011.2 mb 0.00 in0.0 mm 0.00 in0.0 mm 0.00 in0.0 mm
04:15 AM 33.8°F1.0°C 29.1°F-1.6°C 83% 3.0 mph ENE4.8 kmh ENE 6.0 mph9.7 kmh 29.86 in1011.2 mb 0.00 in0.0 mm 0.00 in0.0 mm 0.00 in0.0 mm
04:18 AM 34.0°F1.1°C 29.1°F-1.6°C 82% 3.0 mph ENE4.8 kmh ENE 7.0 mph11.3 kmh 29.86 in1011.2 mb 0.00 in0.0 mm 0.00 in0.0 mm 0.00 in0.0 mm
04:21 AM 34.2°F1.2°C 29.1°F-1.6°C 82% 3.0 mph ENE4.8 kmh ENE 8.0 mph12.9 kmh 29.86 in1011.2 mb 0.00 in0.0 mm 0.00 in0.0 mm 0.00 in0.0 mm
04:24 AM 34.2°F1.2°C 28.9°F-1.7°C 81% 3.0 mph ENE4.8 kmh ENE 8.0 mph12.9 kmh 29.86 in1011.2 mb 0.00 in0.0 mm 0.00 in0.0 mm 0.00 in0.0 mm
04:27 AM 34.2°F1.2°C 28.9°F-1.7°C 81% 4.0 mph ENE6.4 kmh ENE 8.0 mph12.9 kmh 29.86 in1011.2 mb 0.00 in0.0 mm 0.00 in0.0 mm 0.00 in0.0 mm
04:30 AM 34.2°F1.2°C 28.9°F-1.7°C 81% 4.0 mph ENE6.4 kmh ENE 8.0 mph12.9 kmh 29.86 in1011.2 mb 0.00 in0.0 mm 0.00 in0.0 mm 0.00 in0.0 mm
04:33 AM 34.3°F1.3°C 28.8°F-1.8°C 80% 4.0 mph ENE6.4 kmh ENE 7.0 mph11.3 kmh 29.86 in1011.2 mb 0.00 in0.0 mm 0.00 in0.0 mm 0.00 in0.0 mm
04:36 AM 34.3°F1.3°C 28.8°F-1.8°C 80% 4.0 mph ENE6.4 kmh ENE 6.0 mph9.7 kmh 29.86 in1011.2 mb 0.00 in0.0 mm 0.00 in0.0 mm 0.00 in0.0 mm
04:39 AM 34.3°F1.3°C 28.8°F-1.8°C 80% 4.0 mph ENE6.4 kmh ENE 6.0 mph9.7 kmh 29.86 in1011.2 mb 0.00 in0.0 mm 0.00 in0.0 mm 0.00 in0.0 mm
04:42 AM 34.2°F1.2°C 28.8°F-1.8°C 80% 4.0 mph ENE6.4 kmh ENE 8.0 mph12.9 kmh 29.86 in1011.2 mb 0.00 in0.0 mm 0.00 in0.0 mm 0.00 in0.0 mm
04:45 AM 34.2°F1.2°C 28.8°F-1.8°C 80% 3.0 mph ENE4.8 kmh ENE 8.0 mph12.9 kmh 29.86 in1011.2 mb 0.00 in0.0 mm 0.00 in0.0 mm 0.00 in0.0 mm
04:48 AM 34.2°F1.2°C 28.8°F-1.8°C 80% 4.0 mph ENE6.4 kmh ENE 8.0 mph12.9 kmh 29.86 in1011.2 mb 0.00 in0.0 mm 0.00 in0.0 mm 0.00 in0.0 mm
04:51 AM 34.2°F1.2°C 28.8°F-1.8°C 80% 4.0 mph ENE6.4 kmh ENE 8.0 mph12.9 kmh 29.86 in1011.2 mb 0.00 in0.0 mm 0.00 in0.0 mm 0.00 in0.0 mm
04:54 AM 34.3°F1.3°C 29.1°F-1.6°C 81% 4.0 mph E6.4 kmh E 8.0 mph12.9 kmh 29.86 in1011.2 mb 0.00 in0.0 mm 0.00 in0.0 mm 0.00 in0.0 mm
04:57 AM 34.3°F1.3°C 29.1°F-1.6°C 81% 4.0 mph E6.4 kmh E 7.0 mph11.3 kmh 29.86 in1011.2 mb 0.00 in0.0 mm 0.00 in0.0 mm 0.00 in0.0 mm
05:00 AM 34.7°F1.5°C 29.5°F-1.4°C 81% 4.0 mph E6.4 kmh E 8.0 mph12.9 kmh 29.86 in1011.2 mb 0.00 in0.0 mm 0.00 in0.0 mm 0.00 in0.0 mm
05:03 AM 35.1°F1.7°C 29.8°F-1.2°C 81% 4.0 mph E6.4 kmh E 8.0 mph12.9 kmh 29.86 in1011.2 mb 0.00 in0.0 mm 0.00 in0.0 mm 0.00 in0.0 mm
05:06 AM 35.2°F1.8°C 30.0°F-1.1°C 81% 4.0 mph E6.4 kmh E 9.0 mph14.5 kmh 29.86 in1011.2 mb 0.00 in0.0 mm 0.00 in0.0 mm 0.00 in0.0 mm
05:09 AM 35.4°F1.9°C 30.2°F-1.0°C 81% 5.0 mph E8.0 kmh E 11.0 mph17.7 kmh 29.86 in1011.2 mb 0.00 in0.0 mm 0.00 in0.0 mm 0.00 in0.0 mm
05:12 AM 35.8°F2.1°C 30.6°F-0.8°C 81% 6.0 mph E9.7 kmh E 11.0 mph17.7 kmh 29.86 in1011.2 mb 0.00 in0.0 mm 0.00 in0.0 mm 0.00 in0.0 mm
05:15 AM 36.0°F2.2°C 30.7°F-0.7°C 81% 6.0 mph E9.7 kmh E 11.0 mph17.7 kmh 29.86 in1011.2 mb 0.00 in0.0 mm 0.00 in0.0 mm 0.00 in0.0 mm
05:18 AM 36.1°F2.3°C 30.9°F-0.6°C 81% 5.0 mph E8.0 kmh E 11.0 mph17.7 kmh 29.86 in1011.2 mb 0.00 in0.0 mm 0.00 in0.0 mm 0.00 in0.0 mm
05:21 AM 36.1°F2.3°C 30.6°F-0.8°C 80% 5.0 mph E8.0 kmh E 13.0 mph20.9 kmh 29.86 in1011.2 mb 0.00 in0.0 mm 0.00 in0.0 mm 0.00 in0.0 mm
05:24 AM 36.0°F2.2°C 30.7°F-0.7°C 81% 4.0 mph E6.4 kmh E 13.0 mph20.9 kmh 29.86 in1011.2 mb 0.00 in0.0 mm 0.00 in0.0 mm 0.00 in0.0 mm
05:27 AM 36.0°F2.2°C 30.6°F-0.8°C 81% 4.0 mph E6.4 kmh E 13.0 mph20.9 kmh 29.86 in1011.2 mb 0.00 in0.0 mm 0.00 in0.0 mm 0.00 in0.0 mm
05:30 AM 35.8°F2.1°C 30.6°F-0.8°C 81% 4.0 mph E6.4 kmh E 9.0 mph14.5 kmh 29.86 in1011.2 mb 0.00 in0.0 mm 0.00 in0.0 mm 0.00 in0.0 mm
05:33 AM 35.8°F2.1°C 30.6°F-0.8°C 81% 4.0 mph E6.4 kmh E 9.0 mph14.5 kmh 29.87 in1011.5 mb 0.00 in0.0 mm 0.00 in0.0 mm 0.00 in0.0 mm
05:36 AM 35.8°F2.1°C 30.4°F-0.9°C 81% 4.0 mph E6.4 kmh E 9.0 mph14.5 kmh 29.87 in1011.5 mb 0.00 in0.0 mm 0.00 in0.0 mm 0.00 in0.0 mm
05:39 AM 35.8°F2.1°C 30.7°F-0.7°C 82% 4.0 mph E6.4 kmh E 9.0 mph14.5 kmh 29.87 in1011.5 mb 0.00 in0.0 mm 0.00 in0.0 mm 0.00 in0.0 mm
05:42 AM 35.8°F2.1°C 30.9°F-0.6°C 82% 5.0 mph E8.0 kmh E 12.0 mph19.3 kmh 29.87 in1011.5 mb 0.00 in0.0 mm 0.00 in0.0 mm 0.00 in0.0 mm
05:45 AM 36.0°F2.2°C 31.1°F-0.5°C 82% 7.0 mph E11.3 kmh E 12.0 mph19.3 kmh 29.87 in1011.5 mb 0.00 in0.0 mm 0.00 in0.0 mm 0.00 in0.0 mm
05:48 AM 36.3°F2.4°C 31.3°F-0.4°C 82% 7.0 mph E11.3 kmh E 13.0 mph20.9 kmh 29.87 in1011.5 mb 0.00 in0.0 mm 0.00 in0.0 mm 0.00 in0.0 mm
05:51 AM 36.5°F2.5°C 31.5°F-0.3°C 82% 7.0 mph E11.3 kmh E 13.0 mph20.9 kmh 29.87 in1011.5 mb 0.00 in0.0 mm 0.00 in0.0 mm 0.00 in0.0 mm
05:54 AM 36.7°F2.6°C 31.6°F-0.2°C 82% 7.0 mph E11.3 kmh E 13.0 mph20.9 kmh 29.87 in1011.5 mb 0.00 in0.0 mm 0.00 in0.0 mm 0.00 in0.0 mm
05:57 AM 36.9°F2.7°C 31.6°F-0.2°C 81% 7.0 mph E11.3 kmh E 14.0 mph22.5 kmh 29.87 in1011.5 mb 0.00 in0.0 mm 0.00 in0.0 mm 0.00 in0.0 mm
06:00 AM 37.0°F2.8°C 31.6°F-0.2°C 81% 8.0 mph E12.9 kmh E 14.0 mph22.5 kmh 29.87 in1011.5 mb 0.00 in0.0 mm 0.00 in0.0 mm 0.00 in0.0 mm
06:03 AM 37.2°F2.9°C 31.8°F-0.1°C 81% 9.0 mph E14.5 kmh E 14.0 mph22.5 kmh 29.86 in1011.2 mb 0.00 in0.0 mm 0.00 in0.0 mm 0.00 in0.0 mm
06:06 AM 37.2°F2.9°C 32.4°F0.2°C 82% 8.0 mph E12.9 kmh E 12.0 mph19.3 kmh 29.86 in1011.2 mb 0.00 in0.0 mm 0.00 in0.0 mm 0.00 in0.0 mm
06:09 AM 37.4°F3.0°C 32.4°F0.2°C 82% 8.0 mph ESE12.9 kmh ESE 12.0 mph19.3 kmh 29.86 in1011.2 mb 0.00 in0.0 mm 0.00 in0.0 mm 0.00 in0.0 mm
06:12 AM 37.6°F3.1°C 32.5°F0.3°C 82% 8.0 mph ESE12.9 kmh ESE 13.0 mph20.9 kmh 29.87 in1011.5 mb 0.00 in0.0 mm 0.00 in0.0 mm 0.00 in0.0 mm
06:15 AM 37.8°F3.2°C 32.4°F0.2°C 81% 8.0 mph ESE12.9 kmh ESE 13.0 mph20.9 kmh 29.86 in1011.2 mb 0.00 in0.0 mm 0.00 in0.0 mm 0.00 in0.0 mm
06:18 AM 37.8°F3.2°C 32.5°F0.3°C 81% 8.0 mph ESE12.9 kmh ESE 13.0 mph20.9 kmh 29.87 in1011.5 mb 0.00 in0.0 mm 0.00 in0.0 mm 0.00 in0.0 mm
06:21 AM 37.8°F3.2°C 32.5°F0.3°C 81% 8.0 mph ESE12.9 kmh ESE 12.0 mph19.3 kmh 29.87 in1011.5 mb 0.00 in0.0 mm 0.00 in0.0 mm 0.00 in0.0 mm
06:24 AM 37.8°F3.2°C 32.7°F0.4°C 82% 7.0 mph ESE11.3 kmh ESE 11.0 mph17.7 kmh 29.87 in1011.5 mb 0.00 in0.0 mm 0.00 in0.0 mm 0.00 in0.0 mm
06:27 AM 37.8°F3.2°C 32.7°F0.4°C 82% 7.0 mph ESE11.3 kmh ESE 13.0 mph20.9 kmh 29.87 in1011.5 mb 0.00 in0.0 mm 0.00 in0.0 mm 0.00 in0.0 mm
06:30 AM 37.9°F3.3°C 32.9°F0.5°C 82% 7.0 mph ESE11.3 kmh ESE 13.0 mph20.9 kmh 29.87 in1011.5 mb 0.00 in0.0 mm 0.00 in0.0 mm 0.00 in0.0 mm
06:33 AM 38.1°F3.4°C 33.1°F0.6°C 82% 7.0 mph ESE11.3 kmh ESE 13.0 mph20.9 kmh 29.87 in1011.5 mb 0.00 in0.0 mm 0.00 in0.0 mm 0.00 in0.0 mm
06:36 AM 38.1°F3.4°C 33.3°F0.7°C 82% 7.0 mph ESE11.3 kmh ESE 12.0 mph19.3 kmh 29.87 in1011.5 mb 0.00 in0.0 mm 0.00 in0.0 mm 0.00 in0.0 mm
06:39 AM 38.5°F3.6°C 33.4°F0.8°C 82% 7.0 mph ESE11.3 kmh ESE 12.0 mph19.3 kmh 29.87 in1011.5 mb 0.00 in0.0 mm 0.00 in0.0 mm 0.00 in0.0 mm
06:42 AM 38.5°F3.6°C 33.4°F0.8°C 82% 7.0 mph ESE11.3 kmh ESE 13.0 mph20.9 kmh 29.87 in1011.5 mb 0.00 in0.0 mm 0.00 in0.0 mm 0.00 in0.0 mm
06:45 AM 38.5°F3.6°C 33.4°F0.8°C 82% 7.0 mph ESE11.3 kmh ESE 13.0 mph20.9 kmh 29.87 in1011.5 mb 0.00 in0.0 mm 0.00 in0.0 mm 0.00 in0.0 mm
06:48 AM 38.7°F3.7°C 33.6°F0.9°C 82% 7.0 mph ESE11.3 kmh ESE 13.0 mph20.9 kmh 29.87 in1011.5 mb 0.00 in0.0 mm 0.00 in0.0 mm 0.00 in0.0 mm
06:51 AM 38.8°F3.8°C 33.8°F1.0°C 82% 7.0 mph ESE11.3 kmh ESE 11.0 mph17.7 kmh 29.87 in1011.5 mb 0.00 in0.0 mm 0.00 in0.0 mm 0.00 in0.0 mm
06:54 AM 39.0°F3.9°C 34.0°F1.1°C 82% 7.0 mph ESE11.3 kmh ESE 11.0 mph17.7 kmh 29.87 in1011.5 mb 0.00 in0.0 mm 0.00 in0.0 mm 0.00 in0.0 mm
06:57 AM 39.2°F4.0°C 34.5°F1.4°C 83% 7.0 mph ESE11.3 kmh ESE 11.0 mph17.7 kmh 29.87 in1011.5 mb 0.00 in0.0 mm 0.00 in0.0 mm 0.00 in0.0 mm
07:00 AM 39.4°F4.1°C 34.7°F1.5°C 83% 7.0 mph ESE11.3 kmh ESE 11.0 mph17.7 kmh 29.87 in1011.5 mb 0.00 in0.0 mm 0.00 in0.0 mm 0.00 in0.0 mm
07:03 AM 39.7°F4.3°C 34.9°F1.6°C 83% 7.0 mph ESE11.3 kmh ESE 11.0 mph17.7 kmh 29.87 in1011.5 mb 0.00 in0.0 mm 0.00 in0.0 mm 0.00 in0.0 mm
07:06 AM 39.9°F4.4°C 35.2°F1.8°C 83% 7.0 mph ESE11.3 kmh ESE 11.0 mph17.7 kmh 29.87 in1011.5 mb 0.00 in0.0 mm 0.00 in0.0 mm 0.00 in0.0 mm
07:09 AM 40.3°F4.6°C 35.4°F1.9°C 83% 7.0 mph ESE11.3 kmh ESE 11.0 mph17.7 kmh 29.87 in1011.5 mb 0.00 in0.0 mm 0.00 in0.0 mm 0.00 in0.0 mm
07:12 AM 40.5°F4.7°C 35.6°F2.0°C 83% 7.0 mph ESE11.3 kmh ESE 11.0 mph17.7 kmh 29.87 in1011.5 mb 0.00 in0.0 mm 0.00 in0.0 mm 0.00 in0.0 mm
07:15 AM 40.5°F4.7°C 35.8°F2.1°C 83% 8.0 mph SE12.9 kmh SE 14.0 mph22.5 kmh 29.87 in1011.5 mb 0.00 in0.0 mm 0.00 in0.0 mm 0.00 in0.0 mm
07:18 AM 40.8°F4.9°C 36.3°F2.4°C 84% 9.0 mph SE14.5 kmh SE 16.0 mph25.7 kmh 29.87 in1011.5 mb 0.00 in0.0 mm 0.00 in0.0 mm 0.00 in0.0 mm
07:21 AM 41.2°F5.1°C 36.7°F2.6°C 84% 11.0 mph SE17.7 kmh SE 17.0 mph27.4 kmh 29.87 in1011.5 mb 0.00 in0.0 mm 0.00 in0.0 mm 0.00 in0.0 mm
07:24 AM 41.5°F5.3°C 37.0°F2.8°C 84% 12.0 mph SE19.3 kmh SE 17.0 mph27.4 kmh 29.87 in1011.5 mb 0.00 in0.0 mm 0.00 in0.0 mm 0.00 in0.0 mm
07:27 AM 41.9°F5.5°C 37.4°F3.0°C 84% 12.0 mph SE19.3 kmh SE 17.0 mph27.4 kmh 29.87 in1011.5 mb 0.00 in0.0 mm 0.00 in0.0 mm 0.00 in0.0 mm
07:30 AM 42.1°F5.6°C 37.6°F3.1°C 84% 13.0 mph SE20.9 kmh SE 18.0 mph29.0 kmh 29.87 in1011.5 mb 0.00 in0.0 mm 0.00 in0.0 mm 0.00 in0.0 mm
07:33 AM 42.3°F5.7°C 37.8°F3.2°C 84% 13.0 mph SE20.9 kmh SE 18.0 mph29.0 kmh 29.87 in1011.5 mb 0.00 in0.0 mm 0.00 in0.0 mm 0.00 in0.0 mm
07:36 AM 42.6°F5.9°C 37.8°F3.2°C 83% 13.0 mph SE20.9 kmh SE 20.0 mph32.2 kmh 29.87 in1011.5 mb 0.00 in0.0 mm 0.00 in0.0 mm 0.00 in0.0 mm
07:39 AM 42.8°F6.0°C 38.3°F3.5°C 84% 13.0 mph SE20.9 kmh SE 20.0 mph32.2 kmh 29.87 in1011.5 mb 0.00 in0.0 mm 0.00 in0.0 mm 0.00 in0.0 mm
07:42 AM 43.0°F6.1°C 38.1°F3.4°C 83% 13.0 mph SE20.9 kmh SE 20.0 mph32.2 kmh 29.87 in1011.5 mb 0.00 in0.0 mm 0.00 in0.0 mm 0.00 in0.0 mm
07:45 AM 43.2°F6.2°C 38.3°F3.5°C 83% 13.0 mph SE20.9 kmh SE 20.0 mph32.2 kmh 29.87 in1011.5 mb 0.00 in0.0 mm 0.00 in0.0 mm 0.00 in0.0 mm
07:48 AM 43.2°F6.2°C 38.3°F3.5°C 83% 13.0 mph SE20.9 kmh SE 19.0 mph30.6 kmh 29.87 in1011.5 mb 0.00 in0.0 mm 0.00 in0.0 mm 0.00 in0.0 mm
07:51 AM 43.3°F6.3°C 38.5°F3.6°C 83% 13.0 mph SE20.9 kmh SE 21.0 mph33.8 kmh 29.87 in1011.5 mb 0.00 in0.0 mm 0.00 in0.0 mm 0.00 in0.0 mm
07:54 AM 43.5°F6.4°C 38.7°F3.7°C 83% 13.0 mph SE20.9 kmh SE 23.0 mph37.0 kmh 29.87 in1011.5 mb 0.00 in0.0 mm 0.00 in0.0 mm 0.00 in0.0 mm
07:57 AM 43.5°F6.4°C 38.8°F3.8°C 83% 13.0 mph SE20.9 kmh SE 23.0 mph37.0 kmh 29.87 in1011.5 mb 0.00 in0.0 mm 0.00 in0.0 mm 0.00 in0.0 mm
08:00 AM 43.9°F6.6°C 39.0°F3.9°C 83% 13.0 mph SE20.9 kmh SE 23.0 mph37.0 kmh 29.87 in1011.5 mb 0.00 in0.0 mm 0.00 in0.0 mm 0.00 in0.0 mm
08:03 AM 43.9°F6.6°C 39.0°F3.9°C 83% 14.0 mph SE22.5 kmh SE 21.0 mph33.8 kmh 29.87 in1011.5 mb 0.00 in0.0 mm 0.00 in0.0 mm 0.00 in0.0 mm
08:06 AM 44.1°F6.7°C 38.8°F3.8°C 82% 15.0 mph SE24.1 kmh SE 27.0 mph43.5 kmh 29.86 in1011.2 mb 0.00 in0.0 mm 0.00 in0.0 mm 0.00 in0.0 mm
08:09 AM 44.1°F6.7°C 39.0°F3.9°C 82% 17.0 mph SE27.4 kmh SE 32.0 mph51.5 kmh 29.86 in1011.2 mb 0.00 in0.0 mm 0.00 in0.0 mm 0.00 in0.0 mm
08:12 AM 44.1°F6.7°C 39.0°F3.9°C 82% 19.0 mph SSE30.6 kmh SSE 32.0 mph51.5 kmh 29.86 in1011.2 mb 0.00 in0.0 mm 0.00 in0.0 mm 0.00 in0.0 mm
08:15 AM 44.2°F6.8°C 39.0°F3.9°C 82% 18.0 mph SSE29.0 kmh SSE 32.0 mph51.5 kmh 29.87 in1011.5 mb 0.00 in0.0 mm 0.00 in0.0 mm 0.00 in0.0 mm
08:18 AM 44.2°F6.8°C 39.0°F3.9°C 82% 18.0 mph SSE29.0 kmh SSE 32.0 mph51.5 kmh 29.87 in1011.5 mb 0.00 in0.0 mm 0.00 in0.0 mm 0.00 in0.0 mm
08:21 AM 44.2°F6.8°C 39.2°F4.0°C 82% 19.0 mph SSE30.6 kmh SSE 29.0 mph46.7 kmh 29.87 in1011.5 mb 0.00 in0.0 mm 0.00 in0.0 mm 0.00 in0.0 mm
08:24 AM 44.4°F6.9°C 39.2°F4.0°C 82% 19.0 mph SSE30.6 kmh SSE 29.0 mph46.7 kmh 29.87 in1011.5 mb 0.00 in0.0 mm 0.00 in0.0 mm 0.00 in0.0 mm
08:27 AM 44.4°F6.9°C 39.4°F4.1°C 82% 18.0 mph SSE29.0 kmh SSE 29.0 mph46.7 kmh 29.87 in1011.5 mb 0.00 in0.0 mm 0.00 in0.0 mm 0.00 in0.0 mm
08:30 AM 44.6°F7.0°C 39.4°F4.1°C 82% 18.0 mph SSE29.0 kmh SSE 29.0 mph46.7 kmh 29.87 in1011.5 mb 0.00 in0.0 mm 0.00 in0.0 mm 0.00 in0.0 mm
08:33 AM 44.4°F6.9°C 39.0°F3.9°C 81% 19.0 mph SSE30.6 kmh SSE 28.0 mph45.1 kmh 29.87 in1011.5 mb 0.00 in0.0 mm 0.00 in0.0 mm 0.00 in0.0 mm
08:36 AM 44.6°F7.0°C 39.2°F4.0°C 81% 19.0 mph SSE30.6 kmh SSE 28.0 mph45.1 kmh 29.87 in1011.5 mb 0.00 in0.0 mm 0.00 in0.0 mm 0.00 in0.0 mm
08:39 AM 44.6°F7.0°C 39.4°F4.1°C 82% 19.0 mph SE30.6 kmh SE 27.0 mph43.5 kmh 29.86 in1011.2 mb 0.00 in0.0 mm 0.00 in0.0 mm 0.00 in0.0 mm
08:42 AM 44.8°F7.1°C 39.2°F4.0°C 81% 19.0 mph SE30.6 kmh SE 31.0 mph49.9 kmh 29.87 in1011.5 mb 0.00 in0.0 mm 0.00 in0.0 mm 0.00 in0.0 mm
08:45 AM 44.8°F7.1°C 39.2°F4.0°C 81% 20.0 mph SSE32.2 kmh SSE 31.0 mph49.9 kmh 29.86 in1011.2 mb 0.00 in0.0 mm 0.00 in0.0 mm 0.00 in0.0 mm
08:48 AM 44.8°F7.1°C 39.4°F4.1°C 81% 21.0 mph SSE33.8 kmh SSE 31.0 mph49.9 kmh 29.87 in1011.5 mb 0.00 in0.0 mm 0.00 in0.0 mm 0.00 in0.0 mm
08:51 AM 44.8°F7.1°C 39.4°F4.1°C 81% 22.0 mph SSE35.4 kmh SSE 32.0 mph51.5 kmh 29.87 in1011.5 mb 0.00 in0.0 mm 0.00 in0.0 mm 0.00 in0.0 mm
08:54 AM 44.8°F7.1°C 39.4°F4.1°C 81% 21.0 mph SE33.8 kmh SE 32.0 mph51.5 kmh 29.87 in1011.5 mb 0.00 in0.0 mm 0.00 in0.0 mm 0.00 in0.0 mm
08:57 AM 45.0°F7.2°C 39.4°F4.1°C 81% 22.0 mph SSE35.4 kmh SSE 32.0 mph51.5 kmh 29.86 in1011.2 mb 0.00 in0.0 mm 0.00 in0.0 mm 0.00 in0.0 mm
09:00 AM 45.0°F7.2°C 39.4°F4.1°C 81% 22.0 mph SSE35.4 kmh SSE 30.0 mph48.3 kmh 29.86 in1011.2 mb 0.00 in0.0 mm 0.00 in0.0 mm 0.00 in0.0 mm
09:03 AM 45.0°F7.2°C 39.4°F4.1°C 81% 22.0 mph SSE35.4 kmh SSE 31.0 mph49.9 kmh 29.87 in1011.5 mb 0.00 in0.0 mm 0.00 in0.0 mm 0.00 in0.0 mm
09:06 AM 45.0°F7.2°C 39.9°F4.4°C 82% 21.0 mph SSE33.8 kmh SSE 31.0 mph49.9 kmh 29.87 in1011.5 mb 0.00 in0.0 mm 0.00 in0.0 mm 0.00 in0.0 mm
09:09 AM 45.0°F7.2°C 39.6°F4.2°C 81% 20.0 mph SSE32.2 kmh SSE 33.0 mph53.1 kmh 29.87 in1011.5 mb 0.00 in0.0 mm 0.00 in0.0 mm 0.00 in0.0 mm
09:12 AM 45.0°F7.2°C 39.6°F4.2°C 81% 20.0 mph SSE32.2 kmh SSE 33.0 mph53.1 kmh 29.86 in1011.2 mb 0.00 in0.0 mm 0.00 in0.0 mm 0.00 in0.0 mm
09:15 AM 45.0°F7.2°C 39.6°F4.2°C 81% 21.0 mph SSE33.8 kmh SSE 33.0 mph53.1 kmh 29.86 in1011.2 mb 0.00 in0.0 mm 0.00 in0.0 mm 0.00 in0.0 mm
09:18 AM 45.1°F7.3°C 39.6°F4.2°C 81% 21.0 mph SSE33.8 kmh SSE 30.0 mph48.3 kmh 29.86 in1011.2 mb 0.00 in0.0 mm 0.00 in0.0 mm 0.00 in0.0 mm
09:21 AM 45.1°F7.3°C 39.7°F4.3°C 81% 21.0 mph SE33.8 kmh SE 34.0 mph54.7 kmh 29.86 in1011.2 mb 0.00 in0.0 mm 0.00 in0.0 mm 0.00 in0.0 mm
09:24 AM 45.3°F7.4°C 39.7°F4.3°C 81% 20.0 mph SE32.2 kmh SE 34.0 mph54.7 kmh 29.86 in1011.2 mb 0.00 in0.0 mm 0.00 in0.0 mm 0.00 in0.0 mm
09:27 AM 45.3°F7.4°C 39.9°F4.4°C 81% 20.0 mph SE32.2 kmh SE 34.0 mph54.7 kmh 29.86 in1011.2 mb 0.00 in0.0 mm 0.00 in0.0 mm 0.00 in0.0 mm
09:30 AM 45.5°F7.5°C 40.3°F4.6°C 82% 21.0 mph SE33.8 kmh SE 31.0 mph49.9 kmh 29.86 in1011.2 mb 0.00 in0.0 mm 0.00 in0.0 mm 0.00 in0.0 mm
09:33 AM 45.5°F7.5°C 40.3°F4.6°C 82% 21.0 mph SE33.8 kmh SE 31.0 mph49.9 kmh 29.86 in1011.2 mb 0.00 in0.0 mm 0.00 in0.0 mm 0.00 in0.0 mm
09:36 AM 45.5°F7.5°C 39.9°F4.4°C 81% 21.0 mph SE33.8 kmh SE 31.0 mph49.9 kmh 29.86 in1011.2 mb 0.00 in0.0 mm 0.00 in0.0 mm 0.00 in0.0 mm
09:39 AM 45.7°F7.6°C 40.5°F4.7°C 82% 21.0 mph SSE33.8 kmh SSE 31.0 mph49.9 kmh 29.86 in1011.2 mb 0.00 in0.0 mm 0.00 in0.0 mm 0.00 in0.0 mm
09:42 AM 45.5°F7.5°C 40.3°F4.6°C 82% 20.0 mph SSE32.2 kmh SSE 31.0 mph49.9 kmh 29.86 in1011.2 mb 0.00 in0.0 mm 0.00 in0.0 mm 0.00 in0.0 mm
09:45 AM 45.7°F7.6°C 40.5°F4.7°C 82% 20.0 mph SSE32.2 kmh SSE 30.0 mph48.3 kmh 29.87 in1011.5 mb 0.00 in0.0 mm 0.00 in0.0 mm 0.00 in0.0 mm
09:48 AM 45.7°F7.6°C 40.5°F4.7°C 82% 19.0 mph SSE30.6 kmh SSE 30.0 mph48.3 kmh 29.87 in1011.5 mb 0.00 in0.0 mm 0.00 in0.0 mm 0.00 in0.0 mm
09:51 AM 45.7°F7.6°C 40.8°F4.9°C 83% 19.0 mph SSE30.6 kmh SSE 30.0 mph48.3 kmh 29.86 in1011.2 mb 0.00 in0.0 mm 0.00 in0.0 mm 0.00 in0.0 mm
09:54 AM 45.7°F7.6°C 40.8°F4.9°C 83% 19.0 mph SSE30.6 kmh SSE 29.0 mph46.7 kmh 29.86 in1011.2 mb 0.00 in0.0 mm 0.00 in0.0 mm 0.00 in0.0 mm
09:57 AM 45.7°F7.6°C 40.8°F4.9°C 83% 19.0 mph SSE30.6 kmh SSE 29.0 mph46.7 kmh 29.86 in1011.2 mb 0.00 in0.0 mm 0.00 in0.0 mm 0.00 in0.0 mm
10:00 AM 45.7°F7.6°C 40.8°F4.9°C 83% 20.0 mph SE32.2 kmh SE 30.0 mph48.3 kmh 29.86 in1011.2 mb 0.00 in0.0 mm 0.00 in0.0 mm 0.00 in0.0 mm
10:03 AM 45.7°F7.6°C 40.5°F4.7°C 82% 21.0 mph SSE33.8 kmh SSE 32.0 mph51.5 kmh 29.86 in1011.2 mb 0.00 in0.0 mm 0.00 in0.0 mm 0.00 in0.0 mm
10:06 AM 45.7°F7.6°C 40.5°F4.7°C 82% 22.0 mph SE35.4 kmh SE 32.0 mph51.5 kmh 29.86 in1011.2 mb 0.00 in0.0 mm 0.00 in0.0 mm 0.00 in0.0 mm
10:09 AM 45.7°F7.6°C 40.8°F4.9°C 83% 23.0 mph SE37.0 kmh SE 32.0 mph51.5 kmh 29.86 in1011.2 mb 0.00 in0.0 mm 0.00 in0.0 mm 0.00 in0.0 mm
10:12 AM 45.7°F7.6°C 40.8°F4.9°C 83% 23.0 mph SSE37.0 kmh SSE 32.0 mph51.5 kmh 29.86 in1011.2 mb 0.00 in0.0 mm 0.00 in0.0 mm 0.00 in0.0 mm
10:15 AM 45.7°F7.6°C 40.8°F4.9°C 83% 22.0 mph SSE35.4 kmh SSE 33.0 mph53.1 kmh 29.86 in1011.2 mb 0.00 in0.0 mm 0.00 in0.0 mm 0.00 in0.0 mm
10:18 AM 45.9°F7.7°C 41.0°F5.0°C 83% 22.0 mph SSE35.4 kmh SSE 33.0 mph53.1 kmh 29.86 in1011.2 mb 0.00 in0.0 mm 0.00 in0.0 mm 0.00 in0.0 mm
10:21 AM 46.0°F7.8°C 41.2°F5.1°C 83% 22.0 mph SSE35.4 kmh SSE 33.0 mph53.1 kmh 29.86 in1011.2 mb 0.00 in0.0 mm 0.00 in0.0 mm 0.00 in0.0 mm
10:24 AM 46.2°F7.9°C 41.4°F5.2°C 83% 22.0 mph SSE35.4 kmh SSE 34.0 mph54.7 kmh 29.85 in1010.8 mb 0.00 in0.0 mm 0.00 in0.0 mm 0.00 in0.0 mm
10:27 AM 46.4°F8.0°C 41.2°F5.1°C 82% 22.0 mph SE35.4 kmh SE 34.0 mph54.7 kmh 29.85 in1010.8 mb 0.00 in0.0 mm 0.00 in0.0 mm 0.00 in0.0 mm
10:30 AM 46.6°F8.1°C 41.5°F5.3°C 83% 22.0 mph SSE35.4 kmh SSE 34.0 mph54.7 kmh 29.85 in1010.8 mb 0.00 in0.0 mm 0.00 in0.0 mm 0.00 in0.0 mm
10:33 AM 46.8°F8.2°C 41.9°F5.5°C 83% 21.0 mph SSE33.8 kmh SSE 32.0 mph51.5 kmh 29.85 in1010.8 mb 0.00 in0.0 mm 0.00 in0.0 mm 0.00 in0.0 mm
10:36 AM 46.8°F8.2°C 41.9°F5.5°C 83% 20.0 mph SSE32.2 kmh SSE 31.0 mph49.9 kmh 29.85 in1010.8 mb 0.00 in0.0 mm 0.00 in0.0 mm 0.00 in0.0 mm
10:39 AM 46.8°F8.2°C 41.9°F5.5°C 83% 19.0 mph SSE30.6 kmh SSE 31.0 mph49.9 kmh 29.85 in1010.8 mb 0.00 in0.0 mm 0.00 in0.0 mm 0.00 in0.0 mm
10:42 AM 46.8°F8.2°C 41.9°F5.5°C 83% 19.0 mph SSE30.6 kmh SSE 31.0 mph49.9 kmh 29.85 in1010.8 mb 0.00 in0.0 mm 0.00 in0.0 mm 0.00 in0.0 mm
10:45 AM 46.8°F8.2°C 41.9°F5.5°C 83% 20.0 mph SSE32.2 kmh SSE 32.0 mph51.5 kmh 29.85 in1010.8 mb 0.00 in0.0 mm 0.00 in0.0 mm 0.00 in0.0 mm
10:48 AM 46.8°F8.2°C 41.9°F5.5°C 83% 20.0 mph SSE32.2 kmh SSE 32.0 mph51.5 kmh 29.85 in1010.8 mb 0.00 in0.0 mm 0.00 in0.0 mm 0.00 in0.0 mm
10:51 AM 46.9°F8.3°C 42.1°F5.6°C 83% 19.0 mph SSE30.6 kmh SSE 32.0 mph51.5 kmh 29.85 in1010.8 mb 0.00 in0.0 mm 0.00 in0.0 mm 0.00 in0.0 mm
10:54 AM 46.9°F8.3°C 42.1°F5.6°C 83% 20.0 mph SSE32.2 kmh SSE 32.0 mph51.5 kmh 29.85 in1010.8 mb 0.00 in0.0 mm 0.00 in0.0 mm 0.00 in0.0 mm
10:57 AM 46.9°F8.3°C 42.1°F5.6°C 83% 20.0 mph SSE32.2 kmh SSE 31.0 mph49.9 kmh 29.85 in1010.8 mb 0.00 in0.0 mm 0.00 in0.0 mm 0.00 in0.0 mm
11:00 AM 46.9°F8.3°C 42.1°F5.6°C 83% 22.0 mph SSE35.4 kmh SSE 35.0 mph56.3 kmh 29.85 in1010.8 mb 0.00 in0.0 mm 0.00 in0.0 mm 0.00 in0.0 mm
11:03 AM 46.9°F8.3°C 42.1°F5.6°C 83% 22.0 mph SSE35.4 kmh SSE 35.0 mph56.3 kmh 29.84 in1010.5 mb 0.00 in0.0 mm 0.00 in0.0 mm 0.00 in0.0 mm
11:06 AM 46.9°F8.3°C 41.7°F5.4°C 82% 23.0 mph SSE37.0 kmh SSE 35.0 mph56.3 kmh 29.84 in1010.5 mb 0.00 in0.0 mm 0.00 in0.0 mm 0.00 in0.0 mm
11:09 AM 46.9°F8.3°C 42.1°F5.6°C 83% 22.0 mph SSE35.4 kmh SSE 34.0 mph54.7 kmh 29.84 in1010.5 mb 0.00 in0.0 mm 0.00 in0.0 mm 0.00 in0.0 mm
11:12 AM 46.9°F8.3°C 42.1°F5.6°C 83% 21.0 mph SSE33.8 kmh SSE 32.0 mph51.5 kmh 29.84 in1010.5 mb 0.00 in0.0 mm 0.00 in0.0 mm 0.00 in0.0 mm
11:15 AM 46.9°F8.3°C 42.1°F5.6°C 83% 22.0 mph SSE35.4 kmh SSE 32.0 mph51.5 kmh 29.84 in1010.5 mb 0.00 in0.0 mm 0.00 in0.0 mm 0.00 in0.0 mm
11:18 AM 46.8°F8.2°C 41.9°F5.5°C 83% 22.0 mph SSE35.4 kmh SSE 33.0 mph53.1 kmh 29.84 in1010.5 mb 0.00 in0.0 mm 0.00 in0.0 mm 0.00 in0.0 mm
11:21 AM 46.8°F8.2°C 41.9°F5.5°C 83% 22.0 mph SSE35.4 kmh SSE 33.0 mph53.1 kmh 29.84 in1010.5 mb 0.00 in0.0 mm 0.00 in0.0 mm 0.00 in0.0 mm
11:24 AM 46.9°F8.3°C 42.3°F5.7°C 84% 21.0 mph SSE33.8 kmh SSE 33.0 mph53.1 kmh 29.84 in1010.5 mb 0.00 in0.0 mm 0.00 in0.0 mm 0.00 in0.0 mm
11:27 AM 46.9°F8.3°C 42.3°F5.7°C 84% 20.0 mph SSE32.2 kmh SSE 29.0 mph46.7 kmh 29.84 in1010.5 mb 0.00 in0.0 mm 0.00 in0.0 mm 0.00 in0.0 mm
11:30 AM 46.9°F8.3°C 42.3°F5.7°C 84% 20.0 mph SSE32.2 kmh SSE 29.0 mph46.7 kmh 29.84 in1010.5 mb 0.00 in0.0 mm 0.00 in0.0 mm 0.00 in0.0 mm
11:33 AM 46.9°F8.3°C 42.4°F5.8°C 84% 21.0 mph SSE33.8 kmh SSE 31.0 mph49.9 kmh 29.84 in1010.5 mb 0.00 in0.0 mm 0.00 in0.0 mm 0.00 in0.0 mm
11:36 AM 46.9°F8.3°C 42.4°F5.8°C 84% 21.0 mph SSE33.8 kmh SSE 31.0 mph49.9 kmh 29.84 in1010.5 mb 0.00 in0.0 mm 0.00 in0.0 mm 0.00 in0.0 mm
11:39 AM 46.9°F8.3°C 42.8°F6.0°C 85% 22.0 mph SSE35.4 kmh SSE 31.0 mph49.9 kmh 29.84 in1010.5 mb 0.00 in0.0 mm 0.00 in0.0 mm 0.00 in0.0 mm
11:42 AM 46.9°F8.3°C 42.8°F6.0°C 85% 21.0 mph SSE33.8 kmh SSE 30.0 mph48.3 kmh 29.83 in1010.2 mb 0.00 in0.0 mm 0.00 in0.0 mm 0.00 in0.0 mm
11:45 AM 46.9°F8.3°C 42.8°F6.0°C 85% 20.0 mph SSE32.2 kmh SSE 30.0 mph48.3 kmh 29.83 in1010.2 mb 0.00 in0.0 mm 0.00 in0.0 mm 0.00 in0.0 mm
11:48 AM 47.1°F8.4°C 42.8°F6.0°C 85% 20.0 mph SE32.2 kmh SE 28.0 mph45.1 kmh 29.83 in1010.2 mb 0.00 in0.0 mm 0.00 in0.0 mm 0.00 in0.0 mm
11:51 AM 47.1°F8.4°C 43.0°F6.1°C 85% 20.0 mph SE32.2 kmh SE 30.0 mph48.3 kmh 29.83 in1010.2 mb 0.00 in0.0 mm 0.00 in0.0 mm 0.00 in0.0 mm
11:54 AM 47.3°F8.5°C 43.0°F6.1°C 85% 21.0 mph SE33.8 kmh SE 30.0 mph48.3 kmh 29.83 in1010.2 mb 0.00 in0.0 mm 0.00 in0.0 mm 0.00 in0.0 mm
11:57 AM 47.5°F8.6°C 43.2°F6.2°C 85% 21.0 mph SE33.8 kmh SE 30.0 mph48.3 kmh 29.83 in1010.2 mb 0.00 in0.0 mm 0.00 in0.0 mm 0.00 in0.0 mm
12:00 PM 47.5°F8.6°C 43.2°F6.2°C 85% 21.0 mph SSE33.8 kmh SSE 30.0 mph48.3 kmh 29.83 in1010.2 mb 0.00 in0.0 mm 0.00 in0.0 mm 0.00 in0.0 mm
12:03 PM 47.5°F8.6°C 43.2°F6.2°C 85% 21.0 mph SSE33.8 kmh SSE 30.0 mph48.3 kmh 29.83 in1010.2 mb 0.00 in0.0 mm 0.00 in0.0 mm 0.00 in0.0 mm
12:06 PM 47.5°F8.6°C 43.2°F6.2°C 85% 21.0 mph SSE33.8 kmh SSE 32.0 mph51.5 kmh 29.83 in1010.2 mb 0.00 in0.0 mm 0.00 in0.0 mm 0.00 in0.0 mm
12:09 PM 47.7°F8.7°C 43.7°F6.5°C 86% 21.0 mph SSE33.8 kmh SSE 32.0 mph51.5 kmh 29.83 in1010.2 mb 0.00 in0.0 mm 0.00 in0.0 mm 0.00 in0.0 mm
12:12 PM 47.7°F8.7°C 43.7°F6.5°C 86% 20.0 mph SE32.2 kmh SE 32.0 mph51.5 kmh 29.83 in1010.2 mb 0.00 in0.0 mm 0.00 in0.0 mm 0.00 in0.0 mm
12:15 PM 47.7°F8.7°C 43.3°F6.3°C 85% 21.0 mph SE33.8 kmh SE 33.0 mph53.1 kmh 29.82 in1009.8 mb 0.00 in0.0 mm 0.00 in0.0 mm 0.00 in0.0 mm
12:18 PM 47.7°F8.7°C 43.3°F6.3°C 85% 21.0 mph SE33.8 kmh SE 33.0 mph53.1 kmh 29.82 in1009.8 mb 0.00 in0.0 mm 0.00 in0.0 mm 0.00 in0.0 mm
12:21 PM 47.8°F8.8°C 43.5°F6.4°C 85% 22.0 mph SSE35.4 kmh SSE 33.0 mph53.1 kmh 29.82 in1009.8 mb 0.00 in0.0 mm 0.00 in0.0 mm 0.00 in0.0 mm
12:24 PM 47.7°F8.7°C 43.3°F6.3°C 85% 22.0 mph SSE35.4 kmh SSE 33.0 mph53.1 kmh 29.82 in1009.8 mb 0.00 in0.0 mm 0.00 in0.0 mm 0.00 in0.0 mm
12:27 PM 47.7°F8.7°C 43.3°F6.3°C 85% 22.0 mph SSE35.4 kmh SSE 36.0 mph57.9 kmh 29.82 in1009.8 mb 0.00 in0.0 mm 0.00 in0.0 mm 0.00 in0.0 mm
12:30 PM 47.8°F8.8°C 43.9°F6.6°C 86% 22.0 mph SSE35.4 kmh SSE 36.0 mph57.9 kmh 29.82 in1009.8 mb 0.00 in0.0 mm 0.00 in0.0 mm 0.00 in0.0 mm
12:33 PM 47.8°F8.8°C 43.5°F6.4°C 85% 22.0 mph SSE35.4 kmh SSE 36.0 mph57.9 kmh 29.82 in1009.8 mb 0.00 in0.0 mm 0.00 in0.0 mm 0.00 in0.0 mm
12:36 PM 47.8°F8.8°C 43.9°F6.6°C 86% 21.0 mph SSE33.8 kmh SSE 31.0 mph49.9 kmh 29.82 in1009.8 mb 0.00 in0.0 mm 0.00 in0.0 mm 0.00 in0.0 mm
12:39 PM 47.7°F8.7°C 43.7°F6.5°C 86% 21.0 mph SSE33.8 kmh SSE 31.0 mph49.9 kmh 29.82 in1009.8 mb 0.00 in0.0 mm 0.00 in0.0 mm 0.00 in0.0 mm
12:42 PM 47.7°F8.7°C 43.7°F6.5°C 86% 21.0 mph SSE33.8 kmh SSE 31.0 mph49.9 kmh 29.81 in1009.5 mb 0.00 in0.0 mm 0.00 in0.0 mm 0.00 in0.0 mm
12:45 PM 47.7°F8.7°C 43.7°F6.5°C 86% 21.0 mph SSE33.8 kmh SSE 31.0 mph49.9 kmh 29.81 in1009.5 mb 0.00 in0.0 mm 0.00 in0.0 mm 0.00 in0.0 mm
12:48 PM 47.7°F8.7°C 43.7°F6.5°C 86% 22.0 mph SSE35.4 kmh SSE 33.0 mph53.1 kmh 29.81 in1009.5 mb 0.00 in0.0 mm 0.00 in0.0 mm 0.00 in0.0 mm
12:51 PM 47.7°F8.7°C 43.7°F6.5°C 86% 22.0 mph SE35.4 kmh SE 33.0 mph53.1 kmh 29.81 in1009.5 mb 0.00 in0.0 mm 0.00 in0.0 mm 0.00 in0.0 mm
12:54 PM 47.7°F8.7°C 43.7°F6.5°C 86% 22.0 mph SE35.4 kmh SE 34.0 mph54.7 kmh 29.81 in1009.5 mb 0.00 in0.0 mm 0.00 in0.0 mm 0.00 in0.0 mm
12:57 PM 47.7°F8.7°C 43.7°F6.5°C 86% 23.0 mph SE37.0 kmh SE 35.0 mph56.3 kmh 29.81 in1009.5 mb 0.00 in0.0 mm 0.00 in0.0 mm 0.00 in0.0 mm
01:00 PM 47.7°F8.7°C 43.7°F6.5°C 86% 23.0 mph SE37.0 kmh SE 35.0 mph56.3 kmh 29.81 in1009.5 mb 0.00 in0.0 mm 0.00 in0.0 mm 0.00 in0.0 mm
01:03 PM 47.7°F8.7°C 43.9°F6.6°C 87% 23.0 mph SSE37.0 kmh SSE 35.0 mph56.3 kmh 29.81 in1009.5 mb 0.00 in0.0 mm 0.00 in0.0 mm 0.00 in0.0 mm
01:06 PM 47.7°F8.7°C 43.9°F6.6°C 87% 23.0 mph SSE37.0 kmh SSE 32.0 mph51.5 kmh 29.80 in1009.1 mb 0.00 in0.0 mm 0.00 in0.0 mm 0.00 in0.0 mm
01:09 PM 47.7°F8.7°C 43.9°F6.6°C 87% 23.0 mph SSE37.0 kmh SSE 33.0 mph53.1 kmh 29.80 in1009.1 mb 0.00 in0.0 mm 0.00 in0.0 mm 0.00 in0.0 mm
01:12 PM 47.7°F8.7°C 43.9°F6.6°C 87% 23.0 mph SSE37.0 kmh SSE 33.0 mph53.1 kmh 29.81 in1009.5 mb 0.00 in0.0 mm 0.00 in0.0 mm 0.00 in0.0 mm
01:15 PM 47.7°F8.7°C 44.1°F6.7°C 87% 22.0 mph SE35.4 kmh SE 33.0 mph53.1 kmh 29.82 in1009.8 mb 0.00 in0.0 mm 0.00 in0.0 mm 0.00 in0.0 mm
01:18 PM 48.0°F8.9°C 44.2°F6.8°C 87% 22.0 mph SE35.4 kmh SE 33.0 mph53.1 kmh 29.82 in1009.8 mb 0.00 in0.0 mm 0.00 in0.0 mm 0.00 in0.0 mm
01:21 PM 48.2°F9.0°C 44.6°F7.0°C 87% 22.0 mph SE35.4 kmh SE 30.0 mph48.3 kmh 29.82 in1009.8 mb 0.00 in0.0 mm 0.00 in0.0 mm 0.00 in0.0 mm
01:24 PM 48.4°F9.1°C 44.4°F6.9°C 86% 22.0 mph SE35.4 kmh SE 34.0 mph54.7 kmh 29.81 in1009.5 mb 0.00 in0.0 mm 0.00 in0.0 mm 0.00 in0.0 mm
01:27 PM 48.4°F9.1°C 44.4°F6.9°C 86% 22.0 mph SE35.4 kmh SE 34.0 mph54.7 kmh 29.81 in1009.5 mb 0.00 in0.0 mm 0.00 in0.0 mm 0.00 in0.0 mm
01:30 PM 48.6°F9.2°C 44.2°F6.8°C 85% 23.0 mph SE37.0 kmh SE 37.0 mph59.5 kmh 29.82 in1009.8 mb 0.00 in0.0 mm 0.00 in0.0 mm 0.00 in0.0 mm
01:33 PM 48.6°F9.2°C 44.2°F6.8°C 85% 23.0 mph SE37.0 kmh SE 37.0 mph59.5 kmh 29.80 in1009.1 mb 0.00 in0.0 mm 0.00 in0.0 mm 0.00 in0.0 mm
01:36 PM 48.7°F9.3°C 44.4°F6.9°C 85% 24.0 mph SSE38.6 kmh SSE 37.0 mph59.5 kmh 29.80 in1009.1 mb 0.00 in0.0 mm 0.00 in0.0 mm 0.00 in0.0 mm
01:39 PM 48.7°F9.3°C 44.4°F6.9°C 85% 23.0 mph SSE37.0 kmh SSE 36.0 mph57.9 kmh 29.79 in1008.8 mb 0.00 in0.0 mm 0.00 in0.0 mm 0.00 in0.0 mm
01:42 PM 48.9°F9.4°C 44.6°F7.0°C 85% 23.0 mph SE37.0 kmh SE 34.0 mph54.7 kmh 29.79 in1008.8 mb 0.00 in0.0 mm 0.00 in0.0 mm 0.00 in0.0 mm
01:45 PM 49.1°F9.5°C 44.4°F6.9°C 84% 24.0 mph SSE38.6 kmh SSE 39.0 mph62.8 kmh 29.79 in1008.8 mb 0.00 in0.0 mm 0.00 in0.0 mm 0.00 in0.0 mm
01:48 PM 49.1°F9.5°C 44.4°F6.9°C 84% 24.0 mph SSE38.6 kmh SSE 39.0 mph62.8 kmh 29.79 in1008.8 mb 0.00 in0.0 mm 0.00 in0.0 mm 0.00 in0.0 mm
01:51 PM 49.3°F9.6°C 44.6°F7.0°C 84% 25.0 mph SSE40.2 kmh SSE 39.0 mph62.8 kmh 29.79 in1008.8 mb 0.00 in0.0 mm 0.00 in0.0 mm 0.00 in0.0 mm
01:54 PM 49.6°F9.8°C 45.1°F7.3°C 84% 25.0 mph SE40.2 kmh SE 38.0 mph61.2 kmh 29.79 in1008.8 mb 0.00 in0.0 mm 0.00 in0.0 mm 0.00 in0.0 mm
01:57 PM 49.6°F9.8°C 44.8°F7.1°C 83% 25.0 mph SE40.2 kmh SE 38.0 mph61.2 kmh 29.78 in1008.5 mb 0.00 in0.0 mm 0.00 in0.0 mm 0.00 in0.0 mm
02:00 PM 50.2°F10.1°C 45.5°F7.5°C 84% 25.0 mph SE40.2 kmh SE 38.0 mph61.2 kmh 29.78 in1008.5 mb 0.00 in0.0 mm 0.00 in0.0 mm 0.00 in0.0 mm
02:03 PM 50.4°F10.2°C 45.3°F7.4°C 83% 26.0 mph SE41.8 kmh SE 38.0 mph61.2 kmh 29.78 in1008.5 mb 0.00 in0.0 mm 0.00 in0.0 mm 0.00 in0.0 mm
02:06 PM 50.2°F10.1°C 44.8°F7.1°C 82% 26.0 mph SSE41.8 kmh SSE 36.0 mph57.9 kmh 29.78 in1008.5 mb 0.00 in0.0 mm 0.00 in0.0 mm 0.00 in0.0 mm
02:09 PM 49.8°F9.9°C 44.6°F7.0°C 82% 26.0 mph SE41.8 kmh SE 36.0 mph57.9 kmh 29.78 in1008.5 mb 0.00 in0.0 mm 0.00 in0.0 mm 0.00 in0.0 mm
02:12 PM 49.8°F9.9°C 44.8°F7.1°C 83% 26.0 mph SE41.8 kmh SE 36.0 mph57.9 kmh 29.77 in1008.1 mb 0.00 in0.0 mm 0.00 in0.0 mm 0.00 in0.0 mm
02:15 PM 49.8°F9.9°C 45.3°F7.4°C 84% 26.0 mph SE41.8 kmh SE 37.0 mph59.5 kmh 29.77 in1008.1 mb 0.00 in0.0 mm 0.00 in0.0 mm 0.00 in0.0 mm
02:18 PM 50.0°F10.0°C 45.0°F7.2°C 83% 25.0 mph SE40.2 kmh SE 37.0 mph59.5 kmh 29.77 in1008.1 mb 0.00 in0.0 mm 0.00 in0.0 mm 0.00 in0.0 mm
02:21 PM 50.2°F10.1°C 45.5°F7.5°C 84% 25.0 mph SSE40.2 kmh SSE 37.0 mph59.5 kmh 29.77 in1008.1 mb 0.00 in0.0 mm 0.00 in0.0 mm 0.00 in0.0 mm
02:24 PM 50.2°F10.1°C 45.1°F7.3°C 83% 25.0 mph SSE40.2 kmh SSE 37.0 mph59.5 kmh 29.77 in1008.1 mb 0.00 in0.0 mm 0.00 in0.0 mm 0.00 in0.0 mm
02:27 PM 49.8°F9.9°C 45.0°F7.2°C 83% 25.0 mph SSE40.2 kmh SSE 37.0 mph59.5 kmh 29.77 in1008.1 mb 0.00 in0.0 mm 0.00 in0.0 mm 0.00 in0.0 mm
02:30 PM 49.5°F9.7°C 44.6°F7.0°C 83% 25.0 mph SSE40.2 kmh SSE 37.0 mph59.5 kmh 29.77 in1008.1 mb 0.00 in0.0 mm 0.00 in0.0 mm 0.00 in0.0 mm
02:33 PM 49.3°F9.6°C 44.6°F7.0°C 84% 26.0 mph SSE41.8 kmh SSE 37.0 mph59.5 kmh 29.77 in1008.1 mb 0.00 in0.0 mm 0.00 in0.0 mm 0.00 in0.0 mm
02:36 PM 49.3°F9.6°C 45.0°F7.2°C 85% 25.0 mph SSE40.2 kmh SSE 36.0 mph57.9 kmh 29.77 in1008.1 mb 0.00 in0.0 mm 0.00 in0.0 mm 0.00 in0.0 mm
02:39 PM 49.5°F9.7°C 45.1°F7.3°C 85% 25.0 mph SSE40.2 kmh SSE 35.0 mph56.3 kmh 29.77 in1008.1 mb 0.00 in0.0 mm 0.00 in0.0 mm 0.00 in0.0 mm
02:42 PM 49.6°F9.8°C 45.3°F7.4°C 85% 25.0 mph SSE40.2 kmh SSE 39.0 mph62.8 kmh 29.76 in1007.8 mb 0.00 in0.0 mm 0.00 in0.0 mm 0.00 in0.0 mm
02:45 PM 49.6°F9.8°C 45.3°F7.4°C 85% 24.0 mph SE38.6 kmh SE 39.0 mph62.8 kmh 29.76 in1007.8 mb 0.00 in0.0 mm 0.00 in0.0 mm 0.00 in0.0 mm
02:48 PM 49.8°F9.9°C 45.5°F7.5°C 85% 25.0 mph SE40.2 kmh SE 41.0 mph66.0 kmh 29.77 in1008.1 mb 0.00 in0.0 mm 0.00 in0.0 mm 0.00 in0.0 mm
02:51 PM 49.8°F9.9°C 45.3°F7.4°C 84% 27.0 mph SE43.5 kmh SE 41.0 mph66.0 kmh 29.76 in1007.8 mb 0.00 in0.0 mm 0.00 in0.0 mm 0.00 in0.0 mm
02:54 PM 49.6°F9.8°C 45.1°F7.3°C 84% 28.0 mph SE45.1 kmh SE 41.0 mph66.0 kmh 29.76 in1007.8 mb 0.00 in0.0 mm 0.00 in0.0 mm 0.00 in0.0 mm
02:57 PM 49.5°F9.7°C 44.8°F7.1°C 84% 28.0 mph SE45.1 kmh SE 41.0 mph66.0 kmh 29.76 in1007.8 mb 0.00 in0.0 mm 0.00 in0.0 mm 0.00 in0.0 mm
03:00 PM 49.3°F9.6°C 44.6°F7.0°C 84% 29.0 mph SE46.7 kmh SE 41.0 mph66.0 kmh 29.75 in1007.5 mb 0.00 in0.0 mm 0.00 in0.0 mm 0.00 in0.0 mm
03:03 PM 48.9°F9.4°C 44.6°F7.0°C 85% 29.0 mph SSE46.7 kmh SSE 42.0 mph67.6 kmh 29.76 in1007.8 mb 0.00 in0.0 mm 0.00 in0.0 mm 0.00 in0.0 mm
03:06 PM 48.7°F9.3°C 44.4°F6.9°C 85% 29.0 mph SSE46.7 kmh SSE 42.0 mph67.6 kmh 29.75 in1007.5 mb 0.00 in0.0 mm 0.00 in0.0 mm 0.00 in0.0 mm
03:09 PM 48.7°F9.3°C 44.8°F7.1°C 86% 27.0 mph SSE43.5 kmh SSE 42.0 mph67.6 kmh 29.75 in1007.5 mb 0.00 in0.0 mm 0.00 in0.0 mm 0.00 in0.0 mm
03:12 PM 48.6°F9.2°C 44.6°F7.0°C 86% 27.0 mph SSE43.5 kmh SSE 38.0 mph61.2 kmh 29.75 in1007.5 mb 0.00 in0.0 mm 0.00 in0.0 mm 0.00 in0.0 mm
03:15 PM 48.6°F9.2°C 44.6°F7.0°C 86% 25.0 mph SSE40.2 kmh SSE 38.0 mph61.2 kmh 29.75 in1007.5 mb 0.00 in0.0 mm 0.00 in0.0 mm 0.00 in0.0 mm
03:18 PM 48.6°F9.2°C 44.4°F6.9°C 86% 24.0 mph SE38.6 kmh SE 38.0 mph61.2 kmh 29.75 in1007.5 mb 0.00 in0.0 mm 0.00 in0.0 mm 0.00 in0.0 mm
03:21 PM 48.4°F9.1°C 44.8°F7.1°C 87% 21.0 mph SE33.8 kmh SE 34.0 mph54.7 kmh 29.74 in1007.1 mb 0.00 in0.0 mm 0.00 in0.0 mm 0.00 in0.0 mm
03:24 PM 48.2°F9.0°C 44.6°F7.0°C 87% 22.0 mph SE35.4 kmh SE 39.0 mph62.8 kmh 29.74 in1007.1 mb 0.00 in0.0 mm 0.00 in0.0 mm 0.00 in0.0 mm
03:27 PM 48.2°F9.0°C 44.6°F7.0°C 87% 24.0 mph SE38.6 kmh SE 40.0 mph64.4 kmh 29.74 in1007.1 mb 0.00 in0.0 mm 0.00 in0.0 mm 0.00 in0.0 mm
03:30 PM 48.2°F9.0°C 44.8°F7.1°C 88% 25.0 mph SE40.2 kmh SE 40.0 mph64.4 kmh 29.74 in1007.1 mb 0.00 in0.0 mm 0.00 in0.0 mm 0.00 in0.0 mm
03:33 PM 48.0°F8.9°C 44.8°F7.1°C 88% 26.0 mph SE41.8 kmh SE 40.0 mph64.4 kmh 29.74 in1007.1 mb 0.00 in0.0 mm 0.00 in0.0 mm 0.00 in0.0 mm
03:36 PM 48.2°F9.0°C 44.8°F7.1°C 88% 26.0 mph SE41.8 kmh SE 41.0 mph66.0 kmh 29.73 in1006.8 mb 0.00 in0.0 mm 0.00 in0.0 mm 0.00 in0.0 mm
03:39 PM 48.2°F9.0°C 44.8°F7.1°C 88% 25.0 mph SE40.2 kmh SE 41.0 mph66.0 kmh 29.73 in1006.8 mb 0.00 in0.0 mm 0.00 in0.0 mm 0.00 in0.0 mm
03:42 PM 48.2°F9.0°C 44.8°F7.1°C 88% 25.0 mph SE40.2 kmh SE 41.0 mph66.0 kmh 29.73 in1006.8 mb 0.00 in0.0 mm 0.00 in0.0 mm 0.00 in0.0 mm
03:45 PM 48.0°F8.9°C 44.8°F7.1°C 88% 25.0 mph SE40.2 kmh SE 41.0 mph66.0 kmh 29.73 in1006.8 mb 0.00 in0.0 mm 0.00 in0.0 mm 0.00 in0.0 mm
03:48 PM 48.0°F8.9°C 44.8°F7.1°C 88% 24.0 mph SE38.6 kmh SE 37.0 mph59.5 kmh 29.73 in1006.8 mb 0.00 in0.0 mm 0.00 in0.0 mm 0.00 in0.0 mm
03:51 PM 48.0°F8.9°C 44.8°F7.1°C 88% 24.0 mph SE38.6 kmh SE 37.0 mph59.5 kmh 29.73 in1006.8 mb 0.00 in0.0 mm 0.00 in0.0 mm 0.00 in0.0 mm
03:54 PM 48.0°F8.9°C 44.6°F7.0°C 88% 24.0 mph SE38.6 kmh SE 37.0 mph59.5 kmh 29.73 in1006.8 mb 0.00 in0.0 mm 0.00 in0.0 mm 0.00 in0.0 mm
03:57 PM 48.0°F8.9°C 45.0°F7.2°C 89% 25.0 mph SE40.2 kmh SE 44.0 mph70.8 kmh 29.72 in1006.4 mb 0.00 in0.0 mm 0.00 in0.0 mm 0.00 in0.0 mm
04:00 PM 48.0°F8.9°C 45.0°F7.2°C 89% 26.0 mph SE41.8 kmh SE 44.0 mph70.8 kmh 29.72 in1006.4 mb 0.00 in0.0 mm 0.00 in0.0 mm 0.00 in0.0 mm
04:03 PM 48.0°F8.9°C 45.0°F7.2°C 89% 26.0 mph SE41.8 kmh SE 44.0 mph70.8 kmh 29.72 in1006.4 mb 0.00 in0.0 mm 0.00 in0.0 mm 0.00 in0.0 mm
04:06 PM 48.0°F8.9°C 45.0°F7.2°C 89% 25.0 mph SE40.2 kmh SE 37.0 mph59.5 kmh 29.72 in1006.4 mb 0.00 in0.0 mm 0.00 in0.0 mm 0.00 in0.0 mm
04:09 PM 48.0°F8.9°C 45.0°F7.2°C 89% 24.0 mph SSE38.6 kmh SSE 37.0 mph59.5 kmh 29.72 in1006.4 mb 0.00 in0.0 mm 0.00 in0.0 mm 0.00 in0.0 mm
04:12 PM 48.0°F8.9°C 45.0°F7.2°C 89% 25.0 mph SE40.2 kmh SE 36.0 mph57.9 kmh 29.71 in1006.1 mb 0.00 in0.0 mm 0.00 in0.0 mm 0.00 in0.0 mm
04:15 PM 47.8°F8.8°C 44.8°F7.1°C 89% 24.0 mph SE38.6 kmh SE 38.0 mph61.2 kmh 29.71 in1006.1 mb 0.00 in0.0 mm 0.00 in0.0 mm 0.00 in0.0 mm
04:18 PM 47.8°F8.8°C 44.8°F7.1°C 89% 23.0 mph SE37.0 kmh SE 38.0 mph61.2 kmh 29.71 in1006.1 mb 0.00 in0.0 mm 0.00 in0.0 mm 0.00 in0.0 mm
04:21 PM 47.8°F8.8°C 44.8°F7.1°C 89% 23.0 mph SE37.0 kmh SE 38.0 mph61.2 kmh 29.71 in1006.1 mb 0.00 in0.0 mm 0.00 in0.0 mm 0.00 in0.0 mm
04:24 PM 47.7°F8.7°C 44.6°F7.0°C 89% 23.0 mph SE37.0 kmh SE 37.0 mph59.5 kmh 29.70 in1005.8 mb 0.00 in0.0 mm 0.00 in0.0 mm 0.00 in0.0 mm
04:27 PM 47.7°F8.7°C 45.0°F7.2°C 90% 24.0 mph SE38.6 kmh SE 37.0 mph59.5 kmh 29.70 in1005.8 mb 0.00 in0.0 mm 0.00 in0.0 mm 0.00 in0.0 mm
04:30 PM 47.7°F8.7°C 45.0°F7.2°C 90% 24.0 mph SE38.6 kmh SE 37.0 mph59.5 kmh 29.71 in1006.1 mb 0.00 in0.0 mm 0.00 in0.0 mm 0.00 in0.0 mm
04:33 PM 47.7°F8.7°C 45.0°F7.2°C 90% 24.0 mph SE38.6 kmh SE 35.0 mph56.3 kmh 29.70 in1005.8 mb 0.00 in0.0 mm 0.00 in0.0 mm 0.00 in0.0 mm
04:36 PM 47.8°F8.8°C 45.0°F7.2°C 90% 24.0 mph SE38.6 kmh SE 35.0 mph56.3 kmh 29.70 in1005.8 mb 0.00 in0.0 mm 0.00 in0.0 mm 0.00 in0.0 mm
04:39 PM 47.8°F8.8°C 45.1°F7.3°C 90% 25.0 mph SE40.2 kmh SE 36.0 mph57.9 kmh 29.70 in1005.8 mb 0.00 in0.0 mm 0.00 in0.0 mm 0.00 in0.0 mm
04:42 PM 47.8°F8.8°C 45.1°F7.3°C 90% 25.0 mph SSE40.2 kmh SSE 37.0 mph59.5 kmh 29.70 in1005.8 mb 0.00 in0.0 mm 0.00 in0.0 mm 0.00 in0.0 mm
04:45 PM 48.0°F8.9°C 45.1°F7.3°C 90% 26.0 mph SSE41.8 kmh SSE 43.0 mph69.2 kmh 29.69 in1005.4 mb 0.00 in0.0 mm 0.00 in0.0 mm 0.00 in0.0 mm
04:48 PM 48.0°F8.9°C 45.1°F7.3°C 90% 26.0 mph SSE41.8 kmh SSE 43.0 mph69.2 kmh 29.70 in1005.8 mb 0.00 in0.0 mm 0.00 in0.0 mm 0.00 in0.0 mm
04:51 PM 48.0°F8.9°C 45.1°F7.3°C 90% 27.0 mph SE43.5 kmh SE 43.0 mph69.2 kmh 29.69 in1005.4 mb 0.00 in0.0 mm 0.00 in0.0 mm 0.00 in0.0 mm
04:54 PM 48.0°F8.9°C 45.1°F7.3°C 90% 27.0 mph SE43.5 kmh SE 43.0 mph69.2 kmh 29.69 in1005.4 mb 0.00 in0.0 mm 0.00 in0.0 mm 0.00 in0.0 mm
04:57 PM 47.8°F8.8°C 45.1°F7.3°C 90% 27.0 mph SE43.5 kmh SE 45.0 mph72.4 kmh 29.69 in1005.4 mb 0.00 in0.0 mm 0.00 in0.0 mm 0.00 in0.0 mm
05:00 PM 47.8°F8.8°C 45.1°F7.3°C 90% 28.0 mph SE45.1 kmh SE 45.0 mph72.4 kmh 29.69 in1005.4 mb 0.00 in0.0 mm 0.00 in0.0 mm 0.00 in0.0 mm
05:03 PM 47.8°F8.8°C 45.0°F7.2°C 90% 29.0 mph SE46.7 kmh SE 45.0 mph72.4 kmh 29.69 in1005.4 mb 0.00 in0.0 mm 0.00 in0.0 mm 0.00 in0.0 mm
05:06 PM 47.8°F8.8°C 45.0°F7.2°C 90% 31.0 mph SE49.9 kmh SE 45.0 mph72.4 kmh 29.68 in1005.1 mb 0.00 in0.0 mm 0.00 in0.0 mm 0.00 in0.0 mm
05:09 PM 47.8°F8.8°C 45.0°F7.2°C 90% 30.0 mph SE48.3 kmh SE 44.0 mph70.8 kmh 29.69 in1005.4 mb 0.00 in0.0 mm 0.00 in0.0 mm 0.00 in0.0 mm
05:12 PM 47.8°F8.8°C 45.0°F7.2°C 90% 30.0 mph SE48.3 kmh SE 46.0 mph74.0 kmh 29.68 in1005.1 mb 0.00 in0.0 mm 0.00 in0.0 mm 0.00 in0.0 mm
05:15 PM 47.8°F8.8°C 45.1°F7.3°C 90% 31.0 mph SSE49.9 kmh SSE 46.0 mph74.0 kmh 29.68 in1005.1 mb 0.00 in0.0 mm 0.00 in0.0 mm 0.00 in0.0 mm
05:18 PM 48.0°F8.9°C 45.1°F7.3°C 90% 30.0 mph SSE48.3 kmh SSE 46.0 mph74.0 kmh 29.68 in1005.1 mb 0.00 in0.0 mm 0.00 in0.0 mm 0.00 in0.0 mm
05:21 PM 48.0°F8.9°C 45.1°F7.3°C 90% 31.0 mph SSE49.9 kmh SSE 44.0 mph70.8 kmh 29.69 in1005.4 mb 0.00 in0.0 mm 0.00 in0.0 mm 0.00 in0.0 mm
05:24 PM 47.8°F8.8°C 45.1°F7.3°C 90% 30.0 mph SSE48.3 kmh SSE 44.0 mph70.8 kmh 29.68 in1005.1 mb 0.00 in0.0 mm 0.00 in0.0 mm 0.00 in0.0 mm
05:27 PM 47.8°F8.8°C 45.1°F7.3°C 90% 30.0 mph SSE48.3 kmh SSE 44.0 mph70.8 kmh 29.68 in1005.1 mb 0.00 in0.0 mm 0.00 in0.0 mm 0.00 in0.0 mm
05:30 PM 48.0°F8.9°C 45.1°F7.3°C 90% 30.0 mph SE48.3 kmh SE 45.0 mph72.4 kmh 29.68 in1005.1 mb 0.00 in0.0 mm 0.00 in0.0 mm 0.00 in0.0 mm
05:33 PM 47.8°F8.8°C 45.1°F7.3°C 90% 30.0 mph SE48.3 kmh SE 45.0 mph72.4 kmh 29.68 in1005.1 mb 0.00 in0.0 mm 0.00 in0.0 mm 0.00 in0.0 mm
05:36 PM 48.0°F8.9°C 45.1°F7.3°C 90% 31.0 mph SE49.9 kmh SE 45.0 mph72.4 kmh 29.68 in1005.1 mb 0.00 in0.0 mm 0.00 in0.0 mm 0.00 in0.0 mm
05:39 PM 48.0°F8.9°C 45.1°F7.3°C 90% 31.0 mph SE49.9 kmh SE 44.0 mph70.8 kmh 29.68 in1005.1 mb 0.00 in0.0 mm 0.00 in0.0 mm 0.00 in0.0 mm
05:42 PM 48.0°F8.9°C 45.5°F7.5°C 91% 30.0 mph SE48.3 kmh SE 44.0 mph70.8 kmh 29.67 in1004.7 mb 0.00 in0.0 mm 0.00 in0.0 mm 0.00 in0.0 mm
05:45 PM 47.8°F8.8°C 45.3°F7.4°C 91% 30.0 mph SE48.3 kmh SE 44.0 mph70.8 kmh 29.68 in1005.1 mb 0.00 in0.0 mm 0.00 in0.0 mm 0.00 in0.0 mm
05:48 PM 47.8°F8.8°C 45.3°F7.4°C 91% 31.0 mph SE49.9 kmh SE 48.0 mph77.2 kmh 29.67 in1004.7 mb 0.00 in0.0 mm 0.00 in0.0 mm 0.00 in0.0 mm
05:51 PM 47.8°F8.8°C 45.3°F7.4°C 91% 30.0 mph SE48.3 kmh SE 48.0 mph77.2 kmh 29.67 in1004.7 mb 0.00 in0.0 mm 0.00 in0.0 mm 0.00 in0.0 mm
05:54 PM 47.8°F8.8°C 45.3°F7.4°C 91% 31.0 mph SE49.9 kmh SE 48.0 mph77.2 kmh 29.67 in1004.7 mb 0.00 in0.0 mm 0.00 in0.0 mm 0.00 in0.0 mm
05:57 PM 48.0°F8.9°C 45.5°F7.5°C 91% 31.0 mph SE49.9 kmh SE 46.0 mph74.0 kmh 29.67 in1004.7 mb 0.00 in0.0 mm 0.00 in0.0 mm 0.00 in0.0 mm
06:00 PM 48.0°F8.9°C 45.5°F7.5°C 91% 32.0 mph SE51.5 kmh SE 46.0 mph74.0 kmh 29.66 in1004.4 mb 0.00 in0.0 mm 0.00 in0.0 mm 0.00 in0.0 mm
06:03 PM 48.0°F8.9°C 45.5°F7.5°C 91% 32.0 mph SSE51.5 kmh SSE 46.0 mph74.0 kmh 29.67 in1004.7 mb 0.00 in0.0 mm 0.00 in0.0 mm 0.00 in0.0 mm
06:06 PM 48.0°F8.9°C 45.5°F7.5°C 91% 32.0 mph SSE51.5 kmh SSE 49.0 mph78.9 kmh 29.66 in1004.4 mb 0.00 in0.0 mm 0.00 in0.0 mm 0.00 in0.0 mm
06:09 PM 48.0°F8.9°C 45.5°F7.5°C 91% 32.0 mph SSE51.5 kmh SSE 49.0 mph78.9 kmh 29.67 in1004.7 mb 0.00 in0.0 mm 0.00 in0.0 mm 0.00 in0.0 mm
06:12 PM 48.0°F8.9°C 45.7°F7.6°C 91% 32.0 mph SSE51.5 kmh SSE 49.0 mph78.9 kmh 29.66 in1004.4 mb 0.00 in0.0 mm 0.00 in0.0 mm 0.00 in0.0 mm
06:15 PM 48.0°F8.9°C 45.5°F7.5°C 91% 31.0 mph SSE49.9 kmh SSE 49.0 mph78.9 kmh 29.66 in1004.4 mb 0.00 in0.0 mm 0.00 in0.0 mm 0.00 in0.0 mm
06:18 PM 48.0°F8.9°C 45.5°F7.5°C 91% 31.0 mph SSE49.9 kmh SSE 43.0 mph69.2 kmh 29.66 in1004.4 mb 0.00 in0.0 mm 0.00 in0.0 mm 0.00 in0.0 mm
06:21 PM 48.0°F8.9°C 45.5°F7.5°C 91% 31.0 mph SSE49.9 kmh SSE 43.0 mph69.2 kmh 29.66 in1004.4 mb 0.00 in0.0 mm 0.00 in0.0 mm 0.00 in0.0 mm
06:24 PM 47.8°F8.8°C 45.3°F7.4°C 91% 30.0 mph SE48.3 kmh SE 43.0 mph69.2 kmh 29.65 in1004.1 mb 0.00 in0.0 mm 0.00 in0.0 mm 0.00 in0.0 mm
06:27 PM 47.8°F8.8°C 45.5°F7.5°C 92% 30.0 mph SE48.3 kmh SE 43.0 mph69.2 kmh 29.65 in1004.1 mb 0.00 in0.0 mm 0.00 in0.0 mm 0.00 in0.0 mm
06:30 PM 47.8°F8.8°C 45.5°F7.5°C 92% 31.0 mph SE49.9 kmh SE 43.0 mph69.2 kmh 29.65 in1004.1 mb 0.00 in0.0 mm 0.00 in0.0 mm 0.00 in0.0 mm
06:33 PM 47.8°F8.8°C 45.5°F7.5°C 92% 31.0 mph SE49.9 kmh SE 43.0 mph69.2 kmh 29.65 in1004.1 mb 0.00 in0.0 mm 0.00 in0.0 mm 0.00 in0.0 mm
06:36 PM 47.8°F8.8°C 45.5°F7.5°C 92% 31.0 mph SE49.9 kmh SE 45.0 mph72.4 kmh 29.65 in1004.1 mb 0.00 in0.0 mm 0.00 in0.0 mm 0.00 in0.0 mm
06:39 PM 47.7°F8.7°C 45.9°F7.7°C 93% 31.0 mph SSE49.9 kmh SSE 45.0 mph72.4 kmh 29.65 in1004.1 mb 0.00 in0.0 mm 0.00 in0.0 mm 0.00 in0.0 mm
06:42 PM 47.7°F8.7°C 45.9°F7.7°C 93% 31.0 mph SSE49.9 kmh SSE 45.0 mph72.4 kmh 29.64 in1003.7 mb 0.00 in0.0 mm 0.00 in0.0 mm 0.00 in0.0 mm
06:45 PM 47.7°F8.7°C 45.9°F7.7°C 93% 31.0 mph SE49.9 kmh SE 45.0 mph72.4 kmh 29.65 in1004.1 mb 0.00 in0.0 mm 0.00 in0.0 mm 0.00 in0.0 mm
06:48 PM 47.7°F8.7°C 45.9°F7.7°C 93% 31.0 mph SE49.9 kmh SE 45.0 mph72.4 kmh 29.64 in1003.7 mb 0.01 in0.3 mm 0.20 in5.1 mm 0.01 in0.3 mm
06:51 PM 47.7°F8.7°C 45.9°F7.7°C 93% 32.0 mph SE51.5 kmh SE 45.0 mph72.4 kmh 29.64 in1003.7 mb 0.01 in0.3 mm 0.00 in0.0 mm 0.01 in0.3 mm
06:54 PM 47.7°F8.7°C 45.9°F7.7°C 93% 31.0 mph SE49.9 kmh SE 45.0 mph72.4 kmh 29.64 in1003.7 mb 0.01 in0.3 mm 0.00 in0.0 mm 0.01 in0.3 mm
06:57 PM 47.7°F8.7°C 45.9°F7.7°C 93% 31.0 mph SSE49.9 kmh SSE 48.0 mph77.2 kmh 29.64 in1003.7 mb 0.01 in0.3 mm 0.00 in0.0 mm 0.01 in0.3 mm
07:00 PM 47.7°F8.7°C 45.9°F7.7°C 93% 31.0 mph SSE49.9 kmh SSE 49.0 mph78.9 kmh 29.64 in1003.7 mb 0.01 in0.3 mm 0.00 in0.0 mm 0.01 in0.3 mm
07:03 PM 47.8°F8.8°C 45.9°F7.7°C 93% 32.0 mph SSE51.5 kmh SSE 49.0 mph78.9 kmh 29.64 in1003.7 mb 0.01 in0.3 mm 0.00 in0.0 mm 0.01 in0.3 mm
07:06 PM 47.8°F8.8°C 45.9°F7.7°C 93% 34.0 mph SSE54.7 kmh SSE 49.0 mph78.9 kmh 29.63 in1003.4 mb 0.01 in0.3 mm 0.00 in0.0 mm 0.01 in0.3 mm
07:09 PM 47.8°F8.8°C 45.9°F7.7°C 93% 33.0 mph SSE53.1 kmh SSE 49.0 mph78.9 kmh 29.63 in1003.4 mb 0.01 in0.3 mm 0.00 in0.0 mm 0.01 in0.3 mm
07:12 PM 47.8°F8.8°C 45.9°F7.7°C 93% 32.0 mph SSE51.5 kmh SSE 44.0 mph70.8 kmh 29.64 in1003.7 mb 0.01 in0.3 mm 0.00 in0.0 mm 0.01 in0.3 mm
07:15 PM 47.7°F8.7°C 45.9°F7.7°C 93% 31.0 mph SE49.9 kmh SE 44.0 mph70.8 kmh 29.63 in1003.4 mb 0.02 in0.5 mm 0.20 in5.1 mm 0.02 in0.5 mm
07:18 PM 47.7°F8.7°C 45.9°F7.7°C 93% 31.0 mph SSE49.9 kmh SSE 44.0 mph70.8 kmh 29.64 in1003.7 mb 0.02 in0.5 mm 0.00 in0.0 mm 0.02 in0.5 mm
07:21 PM 47.7°F8.7°C 46.0°F7.8°C 94% 31.0 mph SSE49.9 kmh SSE 44.0 mph70.8 kmh 29.64 in1003.7 mb 0.02 in0.5 mm 0.00 in0.0 mm 0.02 in0.5 mm
07:24 PM 47.7°F8.7°C 46.0°F7.8°C 94% 31.0 mph SSE49.9 kmh SSE 47.0 mph75.6 kmh 29.63 in1003.4 mb 0.02 in0.5 mm 0.00 in0.0 mm 0.02 in0.5 mm
07:27 PM 47.7°F8.7°C 46.0°F7.8°C 94% 31.0 mph SSE49.9 kmh SSE 47.0 mph75.6 kmh 29.63 in1003.4 mb 0.02 in0.5 mm 0.00 in0.0 mm 0.02 in0.5 mm
07:30 PM 47.7°F8.7°C 46.0°F7.8°C 94% 31.0 mph SE49.9 kmh SE 47.0 mph75.6 kmh 29.63 in1003.4 mb 0.03 in0.8 mm 0.20 in5.1 mm 0.03 in0.8 mm
07:33 PM 47.7°F8.7°C 46.0°F7.8°C 94% 31.0 mph SE49.9 kmh SE 46.0 mph74.0 kmh 29.62 in1003.0 mb 0.03 in0.8 mm 0.00 in0.0 mm 0.03 in0.8 mm
07:36 PM 47.7°F8.7°C 46.0°F7.8°C 94% 31.0 mph SE49.9 kmh SE 46.0 mph74.0 kmh 29.63 in1003.4 mb 0.03 in0.8 mm 0.00 in0.0 mm 0.03 in0.8 mm
07:39 PM 47.7°F8.7°C 46.0°F7.8°C 94% 30.0 mph SE48.3 kmh SE 44.0 mph70.8 kmh 29.63 in1003.4 mb 0.03 in0.8 mm 0.00 in0.0 mm 0.03 in0.8 mm
07:42 PM 47.7°F8.7°C 46.0°F7.8°C 94% 29.0 mph SSE46.7 kmh SSE 44.0 mph70.8 kmh 29.62 in1003.0 mb 0.04 in1.0 mm 0.20 in5.1 mm 0.04 in1.0 mm
07:45 PM 47.7°F8.7°C 46.0°F7.8°C 94% 30.0 mph SSE48.3 kmh SSE 46.0 mph74.0 kmh 29.62 in1003.0 mb 0.05 in1.3 mm 0.20 in5.1 mm 0.05 in1.3 mm
07:48 PM 47.7°F8.7°C 46.0°F7.8°C 94% 30.0 mph SSE48.3 kmh SSE 46.0 mph74.0 kmh 29.62 in1003.0 mb 0.04 in1.0 mm 0.00 in0.0 mm 0.05 in1.3 mm
07:51 PM 47.7°F8.7°C 46.0°F7.8°C 94% 31.0 mph SSE49.9 kmh SSE 46.0 mph74.0 kmh 29.62 in1003.0 mb 0.04 in1.0 mm 0.00 in0.0 mm 0.05 in1.3 mm
07:54 PM 47.7°F8.7°C 46.0°F7.8°C 94% 31.0 mph SSE49.9 kmh SSE 46.0 mph74.0 kmh 29.62 in1003.0 mb 0.04 in1.0 mm 0.00 in0.0 mm 0.05 in1.3 mm
07:57 PM 47.7°F8.7°C 46.4°F8.0°C 95% 31.0 mph SSE49.9 kmh SSE 44.0 mph70.8 kmh 29.61 in1002.7 mb 0.05 in1.3 mm 0.20 in5.1 mm 0.06 in1.5 mm
08:00 PM 47.7°F8.7°C 46.4°F8.0°C 95% 31.0 mph SSE49.9 kmh SSE 45.0 mph72.4 kmh 29.61 in1002.7 mb 0.05 in1.3 mm 0.00 in0.0 mm 0.06 in1.5 mm
08:03 PM 47.7°F8.7°C 46.4°F8.0°C 95% 32.0 mph SSE51.5 kmh SSE 45.0 mph72.4 kmh 29.61 in1002.7 mb 0.05 in1.3 mm 0.00 in0.0 mm 0.06 in1.5 mm
08:06 PM 47.8°F8.8°C 46.4°F8.0°C 95% 32.0 mph SSE51.5 kmh SSE 45.0 mph72.4 kmh 29.61 in1002.7 mb 0.06 in1.5 mm 0.20 in5.1 mm 0.06 in1.5 mm
08:09 PM 47.8°F8.8°C 46.4°F8.0°C 95% 33.0 mph SSE53.1 kmh SSE 52.0 mph83.7 kmh 29.61 in1002.7 mb 0.06 in1.5 mm 0.00 in0.0 mm 0.06 in1.5 mm
08:12 PM 47.8°F8.8°C 46.4°F8.0°C 95% 33.0 mph SSE53.1 kmh SSE 52.0 mph83.7 kmh 29.61 in1002.7 mb 0.06 in1.5 mm 0.00 in0.0 mm 0.06 in1.5 mm
08:15 PM 47.8°F8.8°C 46.4°F8.0°C 95% 33.0 mph SSE53.1 kmh SSE 52.0 mph83.7 kmh 29.61 in1002.7 mb 0.05 in1.3 mm 0.00 in0.0 mm 0.06 in1.5 mm
08:18 PM 47.8°F8.8°C 46.4°F8.0°C 95% 33.0 mph SSE53.1 kmh SSE 47.0 mph75.6 kmh 29.61 in1002.7 mb 0.05 in1.3 mm 0.00 in0.0 mm 0.06 in1.5 mm
08:21 PM 47.8°F8.8°C 46.4°F8.0°C 95% 34.0 mph SSE54.7 kmh SSE 47.0 mph75.6 kmh 29.61 in1002.7 mb 0.05 in1.3 mm 0.00 in0.0 mm 0.06 in1.5 mm
08:24 PM 47.8°F8.8°C 46.4°F8.0°C 95% 34.0 mph SSE54.7 kmh SSE 47.0 mph75.6 kmh 29.61 in1002.7 mb 0.05 in1.3 mm 0.00 in0.0 mm 0.06 in1.5 mm
08:27 PM 47.8°F8.8°C 46.4°F8.0°C 95% 32.0 mph SSE51.5 kmh SSE 49.0 mph78.9 kmh 29.61 in1002.7 mb 0.04 in1.0 mm 0.00 in0.0 mm 0.06 in1.5 mm
08:30 PM 47.8°F8.8°C 46.4°F8.0°C 95% 31.0 mph SSE49.9 kmh SSE 51.0 mph82.1 kmh 29.61 in1002.7 mb 0.04 in1.0 mm 0.00 in0.0 mm 0.07 in1.8 mm
08:33 PM 47.8°F8.8°C 46.4°F8.0°C 95% 32.0 mph SSE51.5 kmh SSE 51.0 mph82.1 kmh 29.61 in1002.7 mb 0.04 in1.0 mm 0.00 in0.0 mm 0.07 in1.8 mm
08:36 PM 47.8°F8.8°C 46.6°F8.1°C 95% 34.0 mph SSE54.7 kmh SSE 51.0 mph82.1 kmh 29.61 in1002.7 mb 0.04 in1.0 mm 0.00 in0.0 mm 0.07 in1.8 mm
08:39 PM 47.8°F8.8°C 46.6°F8.1°C 95% 34.0 mph SSE54.7 kmh SSE 51.0 mph82.1 kmh 29.61 in1002.7 mb 0.05 in1.3 mm 0.20 in5.1 mm 0.08 in2.0 mm
08:42 PM 48.0°F8.9°C 46.6°F8.1°C 95% 35.0 mph SSE56.3 kmh SSE 55.0 mph88.5 kmh 29.60 in1002.4 mb 0.04 in1.0 mm 0.00 in0.0 mm 0.08 in2.0 mm
08:45 PM 48.0°F8.9°C 46.6°F8.1°C 95% 35.0 mph SSE56.3 kmh SSE 55.0 mph88.5 kmh 29.60 in1002.4 mb 0.03 in0.8 mm 0.00 in0.0 mm 0.08 in2.0 mm
08:48 PM 48.0°F8.9°C 46.6°F8.1°C 95% 34.0 mph SSE54.7 kmh SSE 55.0 mph88.5 kmh 29.60 in1002.4 mb 0.03 in0.8 mm 0.00 in0.0 mm 0.08 in2.0 mm
08:51 PM 47.8°F8.8°C 46.6°F8.1°C 95% 33.0 mph SSE53.1 kmh SSE 50.0 mph80.5 kmh 29.60 in1002.4 mb 0.03 in0.8 mm 0.00 in0.0 mm 0.08 in2.0 mm
08:54 PM 48.0°F8.9°C 46.6°F8.1°C 95% 30.0 mph SSE48.3 kmh SSE 46.0 mph74.0 kmh 29.60 in1002.4 mb 0.04 in1.0 mm 0.20 in5.1 mm 0.09 in2.3 mm
08:57 PM 48.0°F8.9°C 46.6°F8.1°C 95% 31.0 mph SSE49.9 kmh SSE 52.0 mph83.7 kmh 29.60 in1002.4 mb 0.03 in0.8 mm 0.00 in0.0 mm 0.09 in2.3 mm
09:00 PM 48.0°F8.9°C 46.6°F8.1°C 95% 32.0 mph SSE51.5 kmh SSE 52.0 mph83.7 kmh 29.60 in1002.4 mb 0.04 in1.0 mm 0.01 in0.3 mm 0.09 in2.3 mm
09:03 PM 48.0°F8.9°C 46.6°F8.1°C 95% 32.0 mph SSE51.5 kmh SSE 52.0 mph83.7 kmh 29.60 in1002.4 mb 0.04 in1.0 mm 0.00 in0.0 mm 0.09 in2.3 mm
09:06 PM 48.0°F8.9°C 46.6°F8.1°C 95% 32.0 mph SSE51.5 kmh SSE 46.0 mph74.0 kmh 29.60 in1002.4 mb 0.03 in0.8 mm 0.00 in0.0 mm 0.09 in2.3 mm
09:09 PM 48.0°F8.9°C 46.6°F8.1°C 95% 31.0 mph SSE49.9 kmh SSE 49.0 mph78.9 kmh 29.60 in1002.4 mb 0.03 in0.8 mm 0.00 in0.0 mm 0.09 in2.3 mm
09:12 PM 48.0°F8.9°C 46.6°F8.1°C 95% 31.0 mph SSE49.9 kmh SSE 49.0 mph78.9 kmh 29.60 in1002.4 mb 0.03 in0.8 mm 0.00 in0.0 mm 0.09 in2.3 mm
09:15 PM 48.0°F8.9°C 46.6°F8.1°C 95% 32.0 mph SSE51.5 kmh SSE 49.0 mph78.9 kmh 29.60 in1002.4 mb 0.03 in0.8 mm 0.00 in0.0 mm 0.09 in2.3 mm
09:18 PM 48.0°F8.9°C 46.6°F8.1°C 95% 32.0 mph SSE51.5 kmh SSE 49.0 mph78.9 kmh 29.60 in1002.4 mb 0.03 in0.8 mm 0.00 in0.0 mm 0.09 in2.3 mm
09:21 PM 48.0°F8.9°C 46.6°F8.1°C 95% 32.0 mph SSE51.5 kmh SSE 48.0 mph77.2 kmh 29.59 in1002.0 mb 0.03 in0.8 mm 0.00 in0.0 mm 0.09 in2.3 mm
09:24 PM 48.0°F8.9°C 46.6°F8.1°C 95% 31.0 mph SSE49.9 kmh SSE 43.0 mph69.2 kmh 29.59 in1002.0 mb 0.03 in0.8 mm 0.00 in0.0 mm 0.09 in2.3 mm
09:27 PM 48.0°F8.9°C 46.9°F8.3°C 96% 31.0 mph SSE49.9 kmh SSE 43.0 mph69.2 kmh 29.60 in1002.4 mb 0.04 in1.0 mm 0.20 in5.1 mm 0.10 in2.5 mm
09:30 PM 48.0°F8.9°C 46.9°F8.3°C 96% 32.0 mph SSE51.5 kmh SSE 45.0 mph72.4 kmh 29.59 in1002.0 mb 0.03 in0.8 mm 0.00 in0.0 mm 0.10 in2.5 mm
09:33 PM 48.0°F8.9°C 46.8°F8.2°C 95% 32.0 mph SSE51.5 kmh SSE 54.0 mph86.9 kmh 29.59 in1002.0 mb 0.03 in0.8 mm 0.00 in0.0 mm 0.10 in2.5 mm
09:36 PM 48.0°F8.9°C 46.8°F8.2°C 95% 32.0 mph SSE51.5 kmh SSE 54.0 mph86.9 kmh 29.59 in1002.0 mb 0.03 in0.8 mm 0.00 in0.0 mm 0.10 in2.5 mm
09:39 PM 48.0°F8.9°C 46.9°F8.3°C 96% 32.0 mph SSE51.5 kmh SSE 54.0 mph86.9 kmh 29.59 in1002.0 mb 0.02 in0.5 mm 0.00 in0.0 mm 0.10 in2.5 mm
09:42 PM 48.0°F8.9°C 46.9°F8.3°C 96% 32.0 mph SSE51.5 kmh SSE 54.0 mph86.9 kmh 29.59 in1002.0 mb 0.03 in0.8 mm 0.20 in5.1 mm 0.11 in2.8 mm
09:45 PM 48.0°F8.9°C 46.9°F8.3°C 96% 32.0 mph SSE51.5 kmh SSE 47.0 mph75.6 kmh 29.59 in1002.0 mb 0.03 in0.8 mm 0.00 in0.0 mm 0.11 in2.8 mm
09:48 PM 48.0°F8.9°C 46.9°F8.3°C 96% 33.0 mph SSE53.1 kmh SSE 47.0 mph75.6 kmh 29.58 in1001.7 mb 0.03 in0.8 mm 0.00 in0.0 mm 0.11 in2.8 mm
09:51 PM 48.2°F9.0°C 47.1°F8.4°C 96% 35.0 mph SSE56.3 kmh SSE 49.0 mph78.9 kmh 29.58 in1001.7 mb 0.03 in0.8 mm 0.00 in0.0 mm 0.11 in2.8 mm
09:54 PM 48.2°F9.0°C 47.1°F8.4°C 96% 34.0 mph SSE54.7 kmh SSE 53.0 mph85.3 kmh 29.58 in1001.7 mb 0.02 in0.5 mm 0.00 in0.0 mm 0.11 in2.8 mm
09:57 PM 48.2°F9.0°C 47.1°F8.4°C 96% 34.0 mph SSE54.7 kmh SSE 53.0 mph85.3 kmh 29.58 in1001.7 mb 0.02 in0.5 mm 0.00 in0.0 mm 0.11 in2.8 mm
10:00 PM 48.2°F9.0°C 47.1°F8.4°C 96% 33.0 mph SSE53.1 kmh SSE 53.0 mph85.3 kmh 29.58 in1001.7 mb 0.02 in0.5 mm 0.00 in0.0 mm 0.11 in2.8 mm
10:03 PM 48.2°F9.0°C 47.1°F8.4°C 96% 34.0 mph SSE54.7 kmh SSE 51.0 mph82.1 kmh 29.58 in1001.7 mb 0.02 in0.5 mm 0.00 in0.0 mm 0.12 in3.0 mm
10:06 PM 48.2°F9.0°C 47.1°F8.4°C 96% 34.0 mph SSE54.7 kmh SSE 51.0 mph82.1 kmh 29.58 in1001.7 mb 0.03 in0.8 mm 0.20 in5.1 mm 0.13 in3.3 mm
10:09 PM 48.2°F9.0°C 47.1°F8.4°C 96% 34.0 mph SSE54.7 kmh SSE 51.0 mph82.1 kmh 29.58 in1001.7 mb 0.03 in0.8 mm 0.00 in0.0 mm 0.13 in3.3 mm
10:12 PM 48.2°F9.0°C 47.1°F8.4°C 96% 34.0 mph SSE54.7 kmh SSE 52.0 mph83.7 kmh 29.57 in1001.4 mb 0.03 in0.8 mm 0.00 in0.0 mm 0.13 in3.3 mm
10:15 PM 48.4°F9.1°C 47.3°F8.5°C 96% 35.0 mph SSE56.3 kmh SSE 52.0 mph83.7 kmh 29.57 in1001.4 mb 0.03 in0.8 mm 0.00 in0.0 mm 0.13 in3.3 mm
10:18 PM 48.4°F9.1°C 47.3°F8.5°C 96% 34.0 mph SSE54.7 kmh SSE 52.0 mph83.7 kmh 29.58 in1001.7 mb 0.03 in0.8 mm 0.00 in0.0 mm 0.13 in3.3 mm
10:21 PM 48.4°F9.1°C 47.3°F8.5°C 96% 34.0 mph SSE54.7 kmh SSE 52.0 mph83.7 kmh 29.57 in1001.4 mb 0.03 in0.8 mm 0.00 in0.0 mm 0.13 in3.3 mm
10:24 PM 48.4°F9.1°C 47.3°F8.5°C 96% 34.0 mph SSE54.7 kmh SSE 49.0 mph78.9 kmh 29.57 in1001.4 mb 0.02 in0.5 mm 0.00 in0.0 mm 0.13 in3.3 mm
10:27 PM 48.4°F9.1°C 47.3°F8.5°C 96% 34.0 mph SSE54.7 kmh SSE 49.0 mph78.9 kmh 29.57 in1001.4 mb 0.03 in0.8 mm 0.20 in5.1 mm 0.13 in3.3 mm
10:30 PM 48.4°F9.1°C 47.3°F8.5°C 96% 34.0 mph SSE54.7 kmh SSE 51.0 mph82.1 kmh 29.57 in1001.4 mb 0.03 in0.8 mm 0.00 in0.0 mm 0.13 in3.3 mm
10:33 PM 48.2°F9.0°C 47.1°F8.4°C 96% 34.0 mph SSE54.7 kmh SSE 51.0 mph82.1 kmh 29.57 in1001.4 mb 0.04 in1.0 mm 0.20 in5.1 mm 0.14 in3.6 mm
10:36 PM 48.2°F9.0°C 47.1°F8.4°C 96% 34.0 mph SSE54.7 kmh SSE 52.0 mph83.7 kmh 29.57 in1001.4 mb 0.04 in1.0 mm 0.00 in0.0 mm 0.14 in3.6 mm
10:39 PM 48.2°F9.0°C 47.1°F8.4°C 96% 34.0 mph SSE54.7 kmh SSE 52.0 mph83.7 kmh 29.57 in1001.4 mb 0.03 in0.8 mm 0.00 in0.0 mm 0.14 in3.6 mm
10:42 PM 48.2°F9.0°C 47.1°F8.4°C 96% 34.0 mph SSE54.7 kmh SSE 52.0 mph83.7 kmh 29.57 in1001.4 mb 0.03 in0.8 mm 0.00 in0.0 mm 0.14 in3.6 mm
10:45 PM 48.2°F9.0°C 47.1°F8.4°C 96% 34.0 mph SSE54.7 kmh SSE 52.0 mph83.7 kmh 29.57 in1001.4 mb 0.03 in0.8 mm 0.00 in0.0 mm 0.14 in3.6 mm
10:48 PM 48.2°F9.0°C 47.1°F8.4°C 96% 34.0 mph SSE54.7 kmh SSE 52.0 mph83.7 kmh 29.57 in1001.4 mb 0.03 in0.8 mm 0.00 in0.0 mm 0.14 in3.6 mm
10:51 PM 48.2°F9.0°C 47.1°F8.4°C 96% 33.0 mph SSE53.1 kmh SSE 52.0 mph83.7 kmh 29.57 in1001.4 mb 0.03 in0.8 mm 0.00 in0.0 mm 0.14 in3.6 mm
10:54 PM 48.0°F8.9°C 46.9°F8.3°C 96% 32.0 mph SSE51.5 kmh SSE 47.0 mph75.6 kmh 29.57 in1001.4 mb 0.03 in0.8 mm 0.00 in0.0 mm 0.14 in3.6 mm
10:57 PM 48.0°F8.9°C 46.9°F8.3°C 96% 31.0 mph SSE49.9 kmh SSE 46.0 mph74.0 kmh 29.57 in1001.4 mb 0.04 in1.0 mm 0.20 in5.1 mm 0.15 in3.8 mm
11:00 PM 48.2°F9.0°C 47.1°F8.4°C 96% 30.0 mph SSE48.3 kmh SSE 44.0 mph70.8 kmh 29.57 in1001.4 mb 0.03 in0.8 mm 0.00 in0.0 mm 0.16 in4.1 mm
11:03 PM 48.2°F9.0°C 47.1°F8.4°C 96% 32.0 mph SSE51.5 kmh SSE 44.0 mph70.8 kmh 29.57 in1001.4 mb 0.03 in0.8 mm 0.00 in0.0 mm 0.16 in4.1 mm
11:06 PM 48.0°F8.9°C 46.9°F8.3°C 96% 33.0 mph SSE53.1 kmh SSE 44.0 mph70.8 kmh 29.57 in1001.4 mb 0.03 in0.8 mm 0.00 in0.0 mm 0.01 in0.3 mm
11:09 PM 48.2°F9.0°C 47.1°F8.4°C 96% 33.0 mph SSE53.1 kmh SSE 45.0 mph72.4 kmh 29.57 in1001.4 mb 0.03 in0.8 mm 0.00 in0.0 mm 0.01 in0.3 mm
11:12 PM 48.0°F8.9°C 46.9°F8.3°C 96% 31.0 mph SSE49.9 kmh SSE 48.0 mph77.2 kmh 29.57 in1001.4 mb 0.03 in0.8 mm 0.00 in0.0 mm 0.01 in0.3 mm
11:15 PM 48.0°F8.9°C 46.9°F8.3°C 96% 31.0 mph SSE49.9 kmh SSE 48.0 mph77.2 kmh 29.57 in1001.4 mb 0.03 in0.8 mm 0.00 in0.0 mm 0.01 in0.3 mm
11:18 PM 48.0°F8.9°C 46.9°F8.3°C 96% 31.0 mph SSE49.9 kmh SSE 48.0 mph77.2 kmh 29.57 in1001.4 mb 0.04 in1.0 mm 0.20 in5.1 mm 0.02 in0.5 mm
11:21 PM 48.0°F8.9°C 46.9°F8.3°C 96% 29.0 mph SSE46.7 kmh SSE 46.0 mph74.0 kmh 29.56 in1001.0 mb 0.04 in1.0 mm 0.00 in0.0 mm 0.02 in0.5 mm
11:24 PM 48.0°F8.9°C 46.9°F8.3°C 96% 29.0 mph SSE46.7 kmh SSE 46.0 mph74.0 kmh 29.56 in1001.0 mb 0.04 in1.0 mm 0.00 in0.0 mm 0.02 in0.5 mm
11:27 PM 48.0°F8.9°C 46.9°F8.3°C 96% 30.0 mph SSE48.3 kmh SSE 48.0 mph77.2 kmh 29.56 in1001.0 mb 0.04 in1.0 mm 0.00 in0.0 mm 0.02 in0.5 mm
11:30 PM 48.0°F8.9°C 46.9°F8.3°C 96% 32.0 mph SSE51.5 kmh SSE 48.0 mph77.2 kmh 29.56 in1001.0 mb 0.04 in1.0 mm 0.00 in0.0 mm 0.02 in0.5 mm
11:33 PM 48.0°F8.9°C 46.9°F8.3°C 96% 33.0 mph SSE53.1 kmh SSE 48.0 mph77.2 kmh 29.56 in1001.0 mb 0.03 in0.8 mm 0.00 in0.0 mm 0.02 in0.5 mm
11:36 PM 48.0°F8.9°C 46.9°F8.3°C 96% 33.0 mph SSE53.1 kmh SSE 48.0 mph77.2 kmh 29.56 in1001.0 mb 0.03 in0.8 mm 0.00 in0.0 mm 0.02 in0.5 mm
11:39 PM 48.0°F8.9°C 46.9°F8.3°C 96% 32.0 mph SSE51.5 kmh SSE 47.0 mph75.6 kmh 29.56 in1001.0 mb 0.03 in0.8 mm 0.00 in0.0 mm 0.02 in0.5 mm
11:42 PM 48.0°F8.9°C 46.9°F8.3°C 96% 31.0 mph SSE49.9 kmh SSE 47.0 mph75.6 kmh 29.56 in1001.0 mb 0.03 in0.8 mm 0.00 in0.0 mm 0.02 in0.5 mm
11:45 PM 48.0°F8.9°C 46.9°F8.3°C 96% 31.0 mph SSE49.9 kmh SSE 44.0 mph70.8 kmh 29.56 in1001.0 mb 0.03 in0.8 mm 0.00 in0.0 mm 0.02 in0.5 mm
11:48 PM 48.0°F8.9°C 46.9°F8.3°C 96% 31.0 mph SSE49.9 kmh SSE 44.0 mph70.8 kmh 29.56 in1001.0 mb 0.03 in0.8 mm 0.00 in0.0 mm 0.02 in0.5 mm
11:51 PM 47.8°F8.8°C 46.8°F8.2°C 96% 31.0 mph SSE49.9 kmh SSE 45.0 mph72.4 kmh 29.56 in1001.0 mb 0.03 in0.8 mm 0.00 in0.0 mm 0.02 in0.5 mm
11:54 PM 47.8°F8.8°C 46.8°F8.2°C 96% 31.0 mph SSE49.9 kmh SSE 45.0 mph72.4 kmh 29.56 in1001.0 mb 0.02 in0.5 mm 0.00 in0.0 mm 0.02 in0.5 mm
11:57 PM 47.8°F8.8°C 46.8°F8.2°C 96% 31.0 mph SSE49.9 kmh SSE 45.0 mph72.4 kmh 29.56 in1001.0 mb 0.02 in0.5 mm 0.00 in0.0 mm 0.02 in0.5 mm